BKV2170 / UR-CQX 7700 Squawk Report (18th of May, 2019)

Aircraft B734 Reg No. UR-CQX Age 29 years old
Model 737 Jet engines 2 First flight 30-03-90
Registered 21-12-18 Rollout N/A Delivered 16-04-90
Construction No. 24558 Line No. 1845 Series 4B7
ADSHEX 5083DB Airline name Yanair Owner N/A
Airfield based Kiev-Borispol~Kiev~UR First tracked 2018-07-31 14:21:00

Flight history for UR-CQX

Route Flight No Date Playback
???? N/A 2019-06-27 00:19:00
???? N/A 2019-06-26 23:00:00
???? N/A 2019-06-26 19:21:00
???? N/A 2019-06-26 15:01:00
???? N/A 2019-06-26 05:09:00
???? N/A 2019-06-26 01:42:00
???? N/A 2019-06-25 10:08:00
???? N/A 2019-06-25 07:04:00
Batumi (BUS) - Boryspil Intl (KBP) YE1216 2019-06-24 20:58:00
Boryspil Intl (KBP) - Batumi (BUS) YE1215 2019-06-24 18:50:00
???? N/A 2019-06-23 23:14:00
???? N/A 2019-06-23 19:57:00
???? N/A 2019-06-23 16:13:00
???? N/A 2019-06-23 12:31:00
???? N/A 2019-06-23 09:22:00
???? N/A 2019-06-23 07:47:00
???? N/A 2019-06-22 20:17:00
???? N/A 2019-06-22 18:16:00
???? N/A 2019-06-22 13:00:00
???? N/A 2019-06-22 09:38:00
Time Lat Lon Altitude Heading Speed Vertical Rate
2019-05-18 11:44:50 GMT 49.764435 23.955837 1,450 317 159 -1024
2019-05-18 11:44:40 GMT 49.759827 23.962700 1,575 317 159 -1024
2019-05-18 11:44:34 GMT 49.756382 23.967863 1,675 315 155 -704
2019-05-18 11:44:22 GMT 49.749863 23.977289 1,850 317 159 -704
2019-05-18 11:44:13 GMT 49.745590 23.983805 1,975 317 158 -640
2019-05-18 11:44:04 GMT 49.741104 23.990311 2,075 317 159 -768
2019-05-18 11:43:55 GMT 49.735947 23.998075 2,200 317 159 -576
2019-05-18 11:43:39 GMT 49.726868 24.011486 2,425 317 166 -896
2019-05-18 11:43:33 GMT 49.724442 24.014740 2,500 317 169 -1152
2019-05-18 11:43:24 GMT 49.718815 24.023090 2,675 317 177 -1088
2019-05-18 11:43:13 GMT 49.712624 24.032072 2,875 317 176 -896
2019-05-18 11:43:04 GMT 49.706772 24.040833 2,975 317 170 -384
2019-05-18 11:42:54 GMT 49.700775 24.049578 2,975 316 170 320
2019-05-18 11:42:42 GMT 49.694935 24.058128 2,950 317 175 -64
2019-05-18 11:42:32 GMT 49.688740 24.067259 3,000 317 180 -256
2019-05-18 11:42:23 GMT 49.682739 24.076178 3,000 317 186 -64
2019-05-18 11:42:12 GMT 49.675873 24.086296 3,000 316 188 384
2019-05-18 11:42:02 GMT 49.669701 24.095541 2,950 316 192 0
2019-05-18 11:41:51 GMT 49.662998 24.105490 2,975 316 196 -320
2019-05-18 11:41:42 GMT 49.656326 24.115641 3,025 316 198 -128
2019-05-18 11:41:32 GMT 49.649780 24.125471 3,000 317 193 192
2019-05-18 11:41:21 GMT 49.642731 24.135372 2,975 318 190 -128
2019-05-18 11:41:10 GMT 49.636230 24.144480 3,000 319 193 -320
2019-05-18 11:41:00 GMT 49.629017 24.154110 3,000 321 194 128
2019-05-18 11:40:51 GMT 49.621986 24.162870 3,025 321 196 -704
2019-05-18 11:40:41 GMT 49.615128 24.171583 3,200 324 198 -704
2019-05-18 11:40:28 GMT 49.604828 24.180908 3,300 334 203 -768
2019-05-18 11:40:17 GMT 49.595730 24.187738 3,425 334 207 -640
2019-05-18 11:40:10 GMT 49.589355 24.192545 3,500 334 210 -640
2019-05-18 11:40:05 GMT 49.583679 24.196882 3,550 334 212 -640
2019-05-18 11:40:00 GMT 49.579903 24.199762 3,600 334 218 -576
2019-05-18 11:39:56 GMT 49.575993 24.202658 3,650 335 221 -704
2019-05-18 11:39:49 GMT 49.570816 24.206495 3,700 335 226 -704
2019-05-18 11:39:46 GMT 49.566544 24.209709 3,750 334 229 -704
2019-05-18 11:39:38 GMT 49.560883 24.213867 3,825 334 233 -640
2019-05-18 11:39:34 GMT 49.556393 24.217281 3,875 335 236 -768
2019-05-18 11:39:29 GMT 49.550900 24.221365 3,950 335 239 -832
2019-05-18 11:39:24 GMT 49.545265 24.225521 4,025 335 241 -640
2019-05-18 11:39:18 GMT 49.540100 24.229263 4,075 335 246 -576
2019-05-18 11:39:11 GMT 49.531673 24.235470 4,125 335 249 -576
2019-05-18 11:39:07 GMT 49.529625 24.237028 4,150 335 252 -576
2019-05-18 11:39:02 GMT 49.523945 24.241110 4,225 335 256 -1088
2019-05-18 11:38:58 GMT 49.518967 24.244896 4,300 335 257 -1088
2019-05-18 11:38:48 GMT 49.507462 24.253187 4,525 335 258 -1280
2019-05-18 11:38:38 GMT 49.496475 24.261065 4,725 336 261 -1280
2019-05-18 11:38:27 GMT 49.485355 24.268948 4,950 336 262 -1216
2019-05-18 11:38:17 GMT 49.473999 24.276821 5,175 336 263 -1472
2019-05-18 11:38:10 GMT 49.465576 24.282677 5,350 336 263 -1344
2019-05-18 11:38:07 GMT 49.462509 24.284918 5,425 336 264 -1408
2019-05-18 11:37:56 GMT 49.451019 24.293158 5,675 335 262 -1408
2019-05-18 11:37:46 GMT 49.439827 24.301237 5,900 335 263 -1216
2019-05-18 11:37:36 GMT 49.427994 24.309635 6,125 335 264 -1344
2019-05-18 11:37:27 GMT 49.417877 24.317039 6,325 335 265 -1216
2019-05-18 11:37:23 GMT 49.413391 24.320068 6,400 335 266 -1280
2019-05-18 11:37:13 GMT 49.403091 24.327675 6,600 335 267 -1344
2019-05-18 11:37:04 GMT 49.392792 24.335070 6,825 335 268 -1472
2019-05-18 11:36:55 GMT 49.380100 24.344330 7,125 335 267 -1600
2019-05-18 11:36:44 GMT 49.369125 24.352533 7,375 334 266 -1728
2019-05-18 11:36:33 GMT 49.358643 24.360985 7,625 330 268 -1600
2019-05-18 11:36:23 GMT 49.347652 24.372301 7,900 326 272 -1408
2019-05-18 11:36:14 GMT 49.338573 24.382277 8,075 325 276 -1024
2019-05-18 11:36:03 GMT 49.327587 24.393913 8,275 325 282 -1216
2019-05-18 11:35:51 GMT 49.313004 24.409227 8,525 326 286 -1664
2019-05-18 11:35:41 GMT 49.302841 24.418665 8,775 333 292 -1088
2019-05-18 11:35:32 GMT 49.290482 24.427185 8,900 336 301 -768
2019-05-18 11:35:22 GMT 49.279358 24.437677 9,075 329 306 -1216
2019-05-18 11:35:19 GMT 49.275055 24.443523 9,150 317 312 -1216
2019-05-18 11:35:10 GMT 49.267136 24.455355 9,325 316 317 -1472
2019-05-18 11:35:07 GMT 49.263206 24.461349 9,425 316 318 -1472
2019-05-18 11:35:01 GMT 49.258553 24.468216 9,525 316 321 -1472
2019-05-18 11:34:57 GMT 49.252213 24.477539 9,675 316 324 -1536
2019-05-18 11:34:50 GMT 49.245518 24.487440 9,850 316 328 -1536
2019-05-18 11:34:44 GMT 49.238846 24.497610 10,000 317 331 -1600
2019-05-18 11:34:40 GMT 49.234531 24.503777 10,100 317 335 -1600
2019-05-18 11:34:34 GMT 49.228199 24.512882 10,250 317 338 -1600
2019-05-18 11:34:30 GMT 49.223053 24.520569 10,375 317 341 -1600
2019-05-18 11:34:24 GMT 49.214813 24.532612 10,550 317 345 -1600
2019-05-18 11:34:20 GMT 49.211014 24.538105 10,650 317 351 -1536
2019-05-18 11:34:11 GMT 49.200714 24.553246 10,850 317 355 -1536
2019-05-18 11:34:07 GMT 49.196411 24.559584 10,950 317 357 -1536
2019-05-18 11:34:01 GMT 49.188770 24.571068 11,125 316 363 -1472
2019-05-18 11:33:58 GMT 49.184921 24.576557 11,200 316 366 -1536
2019-05-18 11:33:51 GMT 49.176361 24.589233 11,325 316 370 -1536
2019-05-18 11:33:47 GMT 49.172756 24.594414 11,450 316 374 -1536
2019-05-18 11:33:41 GMT 49.160294 24.612896 11,650 316 382 -1792
2019-05-18 11:33:37 GMT 49.160294 24.612896 11,725 316 384 -2048
2019-05-18 11:33:28 GMT 49.146469 24.633179 12,175 316 389 -3008
2019-05-18 11:33:20 GMT 49.137222 24.646912 12,550 317 391 -3008
2019-05-18 11:33:17 GMT 49.133282 24.652597 12,700 317 392 -3072
2019-05-18 11:33:10 GMT 49.123123 24.667545 13,100 317 395 -3072
2019-05-18 11:33:07 GMT 49.120197 24.671824 13,200 317 395 -3072
2019-05-18 11:33:00 GMT 49.110672 24.685717 13,625 317 398 -3008
2019-05-18 11:32:57 GMT 49.105816 24.692783 13,750 317 398 -3008
2019-05-18 11:32:46 GMT 49.092911 24.711351 14,225 317 403 -3008
2019-05-18 11:32:39 GMT 49.082630 24.726395 14,600 317 405 -3072
2019-05-18 11:32:36 GMT 49.078674 24.732267 14,750 317 407 -3008
2019-05-18 11:32:29 GMT 49.069038 24.746199 15,125 316 410 -3264
2019-05-18 11:32:26 GMT 49.063545 24.754221 15,350 316 410 -4032
2019-05-18 11:32:15 GMT 49.049999 24.774315 16,025 316 410 -3904
2019-05-18 11:32:08 GMT 49.041229 24.787199 16,400 317 410 -3200
2019-05-18 11:32:04 GMT 49.034912 24.796284 16,625 317 413 -2240
2019-05-18 11:31:57 GMT 49.024750 24.810862 16,875 317 419 -2112
2019-05-18 11:31:54 GMT 49.021183 24.816236 16,950 317 422 -2176
2019-05-18 11:31:48 GMT 49.012390 24.828890 17,200 317 427 -2368
2019-05-18 11:31:44 GMT 49.006577 24.837341 17,350 317 430 -2432
2019-05-18 11:31:34 GMT 48.991974 24.858257 17,800 317 437 -2880
2019-05-18 11:31:27 GMT 48.981659 24.873047 18,150 317 442 -3328
2019-05-18 11:31:21 GMT 48.974121 24.883680 18,475 318 443 -4160
2019-05-18 11:31:17 GMT 48.966064 24.895020 18,850 318 444 -4160
2019-05-18 11:31:11 GMT 48.957642 24.906359 19,225 319 445 -4288
2019-05-18 11:31:01 GMT 48.938919 24.926922 20,000 330 448 -4160
2019-05-18 11:30:53 GMT 48.925735 24.937204 20,525 334 449 -4160
2019-05-18 11:30:50 GMT 48.920059 24.941429 20,750 335 449 -4160
2019-05-18 11:30:46 GMT 48.912689 24.946922 21,025 335 448 -4160
2019-05-18 11:30:39 GMT 48.899960 24.956312 21,475 335 449 -4160
2019-05-18 11:30:34 GMT 48.892914 24.961430 21,750 335 448 -4160
2019-05-18 11:30:31 GMT 48.885017 24.967081 22,025 335 448 -4160
2019-05-18 11:30:28 GMT 48.879894 24.971056 22,225 334 446 -4160
2019-05-18 11:30:25 GMT 48.873890 24.975538 22,450 334 446 -4160
2019-05-18 11:30:21 GMT 48.868057 24.979881 22,675 334 445 -4160
2019-05-18 11:30:15 GMT 48.855515 24.989389 23,300 334 442 -4160
2019-05-18 11:30:11 GMT 48.849686 24.993896 23,375 334 443 -4160
2019-05-18 11:30:04 GMT 48.836834 25.003582 23,975 333 436 -4224
2019-05-18 11:30:00 GMT 48.829239 25.009460 24,175 333 439 -4224
2019-05-18 11:29:53 GMT 48.814819 25.020658 24,725 333 436 -4224
2019-05-18 11:29:50 GMT 48.811203 25.023544 24,875 333 435 -4224
2019-05-18 11:29:43 GMT 48.797501 25.034445 25,425 333 431 -4352
2019-05-18 11:29:40 GMT 48.793900 25.037277 25,575 333 429 -4416
2019-05-18 11:29:34 GMT 48.780991 25.047489 26,125 333 424 -4544
2019-05-18 11:29:30 GMT 48.776184 25.051363 26,350 333 422 -4544
2019-05-18 11:29:19 GMT 48.757324 25.066320 27,100 333 417 -3200
2019-05-18 11:29:12 GMT 48.746658 25.074604 27,400 333 419 -1344
2019-05-18 11:29:09 GMT 48.728973 25.088291 27,475 333 419 -1216
2019-05-18 11:29:03 GMT 48.728973 25.088291 27,575 333 429 -1216
2019-05-18 11:28:59 GMT 48.711136 25.102209 27,700 333 430 -1216
2019-05-18 11:28:53 GMT 48.711136 25.102209 27,775 333 430 -1216
2019-05-18 11:28:45 GMT 48.692245 25.116770 27,925 333 436 -1152
2019-05-18 11:28:41 GMT 48.692245 25.116770 28,000 333 436 -1152
2019-05-18 11:28:38 GMT 48.685726 25.121758 28,075 334 441 -1152
2019-05-18 11:28:31 GMT 48.674042 25.130720 28,200 334 444 -1152
2019-05-18 11:28:28 GMT 48.665989 25.136864 28,275 334 447 -1216
2019-05-18 11:28:24 GMT 48.657749 25.143080 28,350 334 449 -1152
2019-05-18 11:28:21 GMT 48.653278 25.146477 28,400 334 452 -1152
2019-05-18 11:28:17 GMT 48.646271 25.151791 28,475 334 457 -1088
2019-05-18 11:28:12 GMT 48.625671 25.167282 28,625 334 467 -1152
2019-05-18 11:28:06 GMT 48.625671 25.167282 28,650 334 463 -1024
2019-05-18 11:28:01 GMT 48.615692 25.174606 28,750 334 467 -1152
2019-05-18 11:27:56 GMT 48.606773 25.181314 28,825 334 470 -1408
2019-05-18 11:27:50 GMT 48.576553 25.203976 29,125 334 473 -2496
2019-05-18 11:27:41 GMT 48.576553 25.203976 29,475 334 474 -2496
2019-05-18 11:27:35 GMT 48.566090 25.212032 29,725 334 474 -2432
2019-05-18 11:27:30 GMT 48.554764 25.220453 29,925 334 473 -2368
2019-05-18 11:27:24 GMT 48.542580 25.229740 30,650 334 473 -2368
2019-05-18 11:27:21 GMT 48.535858 25.234680 30,300 334 473 -2368
2019-05-18 11:27:15 GMT 48.525742 25.242287 30,450 334 473 -2432
2019-05-18 11:27:09 GMT 48.514069 25.251160 30,675 334 474 -2368
2019-05-18 11:27:01 GMT 48.497936 25.263206 31,225 334 475 -2368
2019-05-18 11:26:58 GMT 48.492783 25.267145 31,175 334 475 -2304
2019-05-18 11:26:51 GMT 48.476990 25.278837 31,600 334 476 -2368
2019-05-18 11:26:44 GMT 48.456223 25.294647 31,875 334 476 -2432
2019-05-18 11:26:39 GMT 48.456223 25.294647 31,925 334 476 -2368
2019-05-18 11:26:33 GMT 48.436157 25.309753 32,300 334 476 -2432
2019-05-18 11:26:29 GMT 48.436157 25.309753 32,325 334 477 -2432
2019-05-18 11:26:23 GMT 48.423431 25.319189 32,700 334 478 -1984
2019-05-18 11:26:19 GMT 48.413677 25.326738 32,775 334 478 -2048
2019-05-18 11:26:12 GMT 48.403015 25.334614 32,950 334 478 -1984
2019-05-18 11:26:08 GMT 48.393890 25.341484 33,100 334 478 -1984
2019-05-18 11:26:01 GMT 48.378296 25.352642 33,350 337 476 -1856
2019-05-18 11:25:57 GMT 48.372990 25.355940 33,425 337 476 -1856
2019-05-18 11:25:53 GMT 48.362000 25.362572 33,600 339 473 -1856
2019-05-18 11:25:48 GMT 48.352692 25.367937 33,750 341 471 -1536
2019-05-18 11:25:42 GMT 48.339520 25.374443 33,950 345 465 -768
2019-05-18 11:25:36 GMT 48.329865 25.378771 33,900 344 466 -832
2019-05-18 11:25:30 GMT 48.317173 25.383911 34,000 347 462 -384
2019-05-18 11:25:27 GMT 48.307907 25.386948 34,000 348 461 -128
2019-05-18 11:25:20 GMT 48.296768 25.390249 34,000 350 458 0
2019-05-18 11:25:16 GMT 48.287148 25.392801 34,000 350 457 0
2019-05-18 11:25:10 GMT 48.275116 25.396095 34,000 350 456 128
2019-05-18 11:25:05 GMT 48.265182 25.398842 34,000 350 456 64
2019-05-18 11:24:59 GMT 48.252277 25.402269 34,000 350 455 0
2019-05-18 11:24:56 GMT 48.244400 25.404474 34,000 350 455 -64
2019-05-18 11:24:50 GMT 48.232403 25.407763 34,000 350 454 -64
2019-05-18 11:24:44 GMT 48.221741 25.410654 34,000 350 453 0
2019-05-18 11:24:39 GMT 48.210571 25.413771 34,000 350 453 64
2019-05-18 11:24:35 GMT 48.201817 25.416002 34,000 350 453 64
2019-05-18 11:24:28 GMT 48.189480 25.419399 34,000 350 452 64
2019-05-18 11:24:25 GMT 48.180038 25.422010 34,000 350 452 0
2019-05-18 11:24:19 GMT 48.168159 25.425400 34,000 350 452 -64
2019-05-18 11:24:13 GMT 48.157013 25.428543 34,000 350 451 128
2019-05-18 11:24:07 GMT 48.145523 25.431633 34,000 350 451 128
2019-05-18 11:24:02 GMT 48.135727 25.434380 34,000 350 451 0
2019-05-18 11:23:57 GMT 48.122681 25.438156 34,000 350 450 -64
2019-05-18 11:23:54 GMT 48.110321 25.441589 34,000 350 451 0
2019-05-18 11:23:46 GMT 48.103313 25.443632 34,000 350 451 64
2019-05-18 11:23:41 GMT 48.091114 25.447083 34,000 350 451 0
2019-05-18 11:23:38 GMT 48.084599 25.448914 34,000 350 451 0
2019-05-18 11:23:33 GMT 48.073097 25.452225 34,000 350 451 64
2019-05-18 11:23:26 GMT 48.062073 25.455460 33,975 350 451 -64
2019-05-18 11:23:20 GMT 48.049713 25.459099 34,000 350 451 -64
2019-05-18 11:23:16 GMT 48.040787 25.461639 34,000 350 452 -64
2019-05-18 11:23:11 GMT 48.030502 25.464548 34,000 350 452 0
2019-05-18 11:23:08 GMT 48.022614 25.466789 34,000 350 452 0
2019-05-18 11:23:04 GMT 48.016068 25.468712 34,000 350 452 -64
2019-05-18 11:22:59 GMT 48.003365 25.472296 34,000 350 452 -64
2019-05-18 11:22:54 GMT 47.996521 25.474205 34,000 350 452 0
2019-05-18 11:22:51 GMT 47.989151 25.476402 34,000 350 452 64
2019-05-18 11:22:47 GMT 47.978832 25.479338 34,000 350 451 64
2019-05-18 11:22:44 GMT 47.975922 25.480042 34,000 350 451 0
2019-05-18 11:22:41 GMT 47.967335 25.482435 34,000 350 451 -64
2019-05-18 11:22:38 GMT 47.962006 25.483955 34,000 350 451 -64
2019-05-18 11:22:33 GMT 47.952072 25.486702 34,000 350 452 -64
2019-05-18 11:22:30 GMT 47.945873 25.488281 34,000 350 452 0
2019-05-18 11:22:27 GMT 47.940193 25.489832 34,000 348 451 0
2019-05-18 11:22:24 GMT 47.932297 25.492058 34,000 350 451 64
2019-05-18 11:22:17 GMT 47.918427 25.495628 34,000 351 451 -64
2019-05-18 11:22:13 GMT 47.911377 25.497366 34,000 351 451 -64
2019-05-18 11:22:09 GMT 47.903137 25.499409 34,000 351 451 -64
2019-05-18 11:22:06 GMT 47.896088 25.501328 34,000 351 451 0
2019-05-18 11:22:03 GMT 47.888378 25.503210 34,000 351 450 0
2019-05-18 11:21:59 GMT 47.883041 25.504417 34,000 351 450 0
2019-05-18 11:21:56 GMT 47.875160 25.506310 34,000 351 450 0
2019-05-18 11:21:49 GMT 47.854202 25.511078 34,000 352 450 64
2019-05-18 11:21:45 GMT 47.854202 25.511078 34,000 348 451 0
2019-05-18 11:21:42 GMT 47.845646 25.513000 34,000 352 448 0
2019-05-18 11:21:38 GMT 47.830353 25.516228 34,000 352 448 -64
2019-05-18 11:21:34 GMT 47.830353 25.516228 34,000 351 449 -64
2019-05-18 11:21:30 GMT 47.823486 25.518282 34,000 348 451 0
2019-05-18 11:21:27 GMT 47.817806 25.520184 34,000 345 452 0
2019-05-18 11:21:24 GMT 47.808868 25.524128 34,000 342 455 0
2019-05-18 11:21:20 GMT 47.802887 25.527420 34,000 339 457 0
2019-05-18 11:21:17 GMT 47.797577 25.530647 34,000 337 458 -64
2019-05-18 11:21:12 GMT 47.787968 25.537508 34,000 330 462 -128
2019-05-18 11:21:09 GMT 47.783157 25.541634 34,025 329 463 -128
2019-05-18 11:21:06 GMT 47.776981 25.547649 34,025 326 464 -64
2019-05-18 11:21:00 GMT 47.764923 25.562086 34,000 317 468 192
2019-05-18 11:20:56 GMT 47.760315 25.569622 34,000 312 470 128
2019-05-18 11:20:52 GMT 47.755333 25.578566 34,000 308 471 -64
2019-05-18 11:20:47 GMT 47.747452 25.594711 34,025 305 470 -64
2019-05-18 11:20:39 GMT 47.738342 25.614624 34,000 304 470 128
2019-05-18 11:20:36 GMT 47.735596 25.620962 34,000 304 470 192
2019-05-18 11:20:31 GMT 47.729050 25.635361 33,975 304 470 0
2019-05-18 11:20:28 GMT 47.725449 25.643429 33,975 304 469 -64
2019-05-18 11:20:25 GMT 47.721539 25.652020 34,000 304 469 -64
2019-05-18 11:20:22 GMT 47.717056 25.662140 34,000 304 468 0
2019-05-18 11:20:15 GMT 47.710373 25.677109 34,000 304 468 0
2019-05-18 11:20:11 GMT 47.704872 25.689417 34,000 303 467 0
2019-05-18 11:20:05 GMT 47.698517 25.704025 33,975 303 466 64
2019-05-18 11:20:01 GMT 47.693188 25.716389 33,975 303 466 -64
2019-05-18 11:19:55 GMT 47.685974 25.733070 34,000 303 466 64
2019-05-18 11:19:50 GMT 47.681351 25.743713 33,975 303 466 64
2019-05-18 11:19:46 GMT 47.674984 25.758291 33,975 303 466 0
2019-05-18 11:19:40 GMT 47.669491 25.771179 34,000 303 466 -128
2019-05-18 11:19:33 GMT 47.660934 25.790886 34,000 303 466 -64
2019-05-18 11:19:30 GMT 47.657135 25.799469 34,000 303 466 0
2019-05-18 11:19:23 GMT 47.644455 25.828514 34,000 303 465 -64
2019-05-18 11:19:19 GMT 47.644455 25.828514 34,000 304 466 0
2019-05-18 11:19:12 GMT 47.632435 25.855619 34,000 304 466 0
2019-05-18 11:19:09 GMT 47.632435 25.855619 34,000 304 466 64
2019-05-18 11:19:02 GMT 47.625229 25.872253 34,000 304 467 64
2019-05-18 11:18:58 GMT 47.620239 25.883436 34,000 304 466 -64
2019-05-18 11:18:52 GMT 47.613209 25.899565 34,000 304 466 -192
2019-05-18 11:18:48 GMT 47.608200 25.910706 34,000 304 466 0
2019-05-18 11:18:42 GMT 47.601013 25.927172 34,000 304 466 128
2019-05-18 11:18:37 GMT 47.595844 25.939074 34,000 303 465 64
2019-05-18 11:18:31 GMT 47.588470 25.955544 34,000 303 465 -64
2019-05-18 11:18:27 GMT 47.583344 25.967216 34,000 303 464 -64
2019-05-18 11:18:21 GMT 47.576107 25.983652 34,000 304 464 -64
2019-05-18 11:18:17 GMT 47.571671 25.993790 34,025 304 464 64
2019-05-18 11:18:10 GMT 47.564255 26.010818 34,000 303 462 64
2019-05-18 11:18:07 GMT 47.559814 26.020906 34,000 303 462 -64
2019-05-18 11:18:00 GMT 47.552261 26.038422 34,000 303 461 64
2019-05-18 11:17:55 GMT 47.546768 26.051125 34,000 303 460 64
2019-05-18 11:17:52 GMT 47.542648 26.060738 34,000 303 458 -128
2019-05-18 11:17:49 GMT 47.540085 26.067123 34,000 303 458 -128
2019-05-18 11:17:45 GMT 47.535282 26.078093 34,000 303 457 -128
2019-05-18 11:17:40 GMT 47.528915 26.092186 34,025 305 454 128
2019-05-18 11:17:35 GMT 47.523411 26.103868 34,000 306 453 64
2019-05-18 11:17:31 GMT 47.514984 26.120981 34,000 306 452 -64
2019-05-18 11:17:25 GMT 47.510880 26.129402 34,000 306 450 -64
2019-05-18 11:17:19 GMT 47.503487 26.144855 34,000 306 449 64
2019-05-18 11:17:14 GMT 47.498016 26.156525 34,000 305 448 64
2019-05-18 11:17:08 GMT 47.491150 26.170982 34,000 305 447 128
2019-05-18 11:17:04 GMT 47.485657 26.182480 33,975 305 447 0
2019-05-18 11:16:57 GMT 47.478607 26.197586 33,975 305 446 -192
2019-05-18 11:16:54 GMT 47.466614 26.223679 34,000 305 444 -192
2019-05-18 11:16:48 GMT 47.466614 26.223679 34,000 305 442 64
2019-05-18 11:16:44 GMT 47.462288 26.233097 34,000 305 441 64
2019-05-18 11:16:38 GMT 47.455257 26.247887 33,975 305 440 128
2019-05-18 11:16:35 GMT 47.451828 26.255264 33,975 305 439 0
2019-05-18 11:16:26 GMT 47.441895 26.277031 33,975 305 439 64
2019-05-18 11:16:23 GMT 47.438267 26.284437 33,975 305 439 128
2019-05-18 11:16:15 GMT 47.430027 26.302114 33,975 305 439 -128
2019-05-18 11:16:12 GMT 47.426102 26.310539 33,975 306 439 -256
2019-05-18 11:16:09 GMT 47.421600 26.319792 34,000 308 437 -64
2019-05-18 11:16:04 GMT 47.415115 26.332649 34,000 308 438 -64
2019-05-18 11:15:59 GMT 47.409439 26.342812 34,000 314 432 -128
2019-05-18 11:15:54 GMT 47.404282 26.351061 34,000 314 432 -128
2019-05-18 11:15:49 GMT 47.396576 26.362038 34,025 318 429 -256
2019-05-18 11:15:45 GMT 47.389160 26.370964 34,025 323 425 192
2019-05-18 11:15:41 GMT 47.382156 26.378311 34,000 327 422 448
2019-05-18 11:15:37 GMT 47.376633 26.383455 33,975 330 422 320
2019-05-18 11:15:33 GMT 47.371140 26.388103 33,950 331 421 128
2019-05-18 11:15:29 GMT 47.364483 26.393738 33,975 331 421 -192
2019-05-18 11:15:24 GMT 47.354507 26.401657 33,975 332 421 0
2019-05-18 11:15:18 GMT 47.344696 26.409723 34,000 331 422 -128
2019-05-18 11:15:14 GMT 47.337154 26.415922 34,025 332 421 -192
2019-05-18 11:15:09 GMT 47.329613 26.421907 34,000 332 422 128
2019-05-18 11:15:05 GMT 47.321373 26.428598 33,975 332 422 64
2019-05-18 11:14:58 GMT 47.310196 26.437706 34,000 332 422 -128
2019-05-18 11:14:53 GMT 47.301636 26.444586 34,000 332 423 0
2019-05-18 11:14:48 GMT 47.293716 26.450958 34,000 332 423 128
2019-05-18 11:14:41 GMT 47.282410 26.460218 33,975 331 424 64
2019-05-18 11:14:38 GMT 47.276218 26.465149 33,975 331 424 0
2019-05-18 11:14:32 GMT 47.265564 26.473961 34,000 331 423 64
2019-05-18 11:14:27 GMT 47.256638 26.481171 34,000 331 424 -128
2019-05-18 11:14:21 GMT 47.247711 26.488380 34,000 332 425 0
2019-05-18 11:14:17 GMT 47.240513 26.494164 34,000 331 424 64
2019-05-18 11:14:10 GMT 47.228828 26.503813 34,000 332 425 0
2019-05-18 11:14:01 GMT 47.212692 26.516876 34,000 332 425 64
2019-05-18 11:13:58 GMT 47.208252 26.520433 34,000 332 425 64
2019-05-18 11:13:49 GMT 47.191406 26.534180 34,000 332 426 0
2019-05-18 11:13:40 GMT 47.176849 26.545853 34,000 332 426 64
2019-05-18 11:13:37 GMT 47.172043 26.549629 34,000 332 426 -64
2019-05-18 11:13:30 GMT 47.154530 26.563885 34,000 332 426 0
2019-05-18 11:13:19 GMT 47.140961 26.574692 34,000 332 426 0
2019-05-18 11:13:15 GMT 47.134781 26.579704 34,000 332 426 128
2019-05-18 11:13:09 GMT 47.114685 26.595840 33,975 331 426 -128
2019-05-18 11:12:59 GMT 47.104721 26.603888 34,000 332 427 -64
2019-05-18 11:12:55 GMT 47.087036 26.618294 34,000 332 427 64
2019-05-18 11:12:48 GMT 47.087036 26.618294 33,975 331 427 64
2019-05-18 11:12:42 GMT 47.077423 26.626053 34,000 332 427 -256
2019-05-18 11:12:37 GMT 47.069046 26.632713 34,025 332 427 64
2019-05-18 11:12:28 GMT 47.051373 26.646988 34,000 332 428 128
2019-05-18 11:12:23 GMT 47.042435 26.654169 34,000 332 429 64
2019-05-18 11:12:16 GMT 47.032658 26.662058 33,975 332 429 320
2019-05-18 11:12:10 GMT 47.019745 26.672401 34,000 332 429 -64
2019-05-18 11:12:07 GMT 47.014252 26.677002 34,000 332 429 64
2019-05-18 11:11:59 GMT 47.003128 26.685791 34,000 332 430 256
2019-05-18 11:11:55 GMT 46.984909 26.700554 33,975 331 432 128
2019-05-18 11:11:49 GMT 46.984909 26.700554 34,000 332 431 -192
2019-05-18 11:11:46 GMT 46.978237 26.705862 34,000 332 431 -192
2019-05-18 11:11:38 GMT 46.965015 26.716496 34,000 332 431 0
2019-05-18 11:11:35 GMT 46.960556 26.720123 34,000 332 431 0
2019-05-18 11:11:25 GMT 46.942337 26.734680 34,000 332 431 0
2019-05-18 11:11:18 GMT 46.928799 26.745865 34,000 331 432 128
2019-05-18 11:11:15 GMT 46.923817 26.749807 34,000 331 432 64
2019-05-18 11:11:07 GMT 46.909199 26.761639 34,000 331 433 -128
2019-05-18 11:11:04 GMT 46.906315 26.764032 34,000 331 433 -128
2019-05-18 11:10:54 GMT 46.888111 26.778824 34,000 331 433 64
2019-05-18 11:10:43 GMT 46.869911 26.793543 34,000 332 433 -64
2019-05-18 11:10:33 GMT 46.852066 26.807980 34,000 332 433 64
2019-05-18 11:10:23 GMT 46.833508 26.822914 34,000 332 433 0
2019-05-18 11:10:13 GMT 46.815674 26.837189 34,000 332 433 -128
2019-05-18 11:10:01 GMT 46.794868 26.853470 34,000 332 432 0
2019-05-18 11:09:51 GMT 46.777542 26.867199 34,025 332 433 0
2019-05-18 11:09:40 GMT 46.752319 26.887094 34,000 332 433 64
2019-05-18 11:09:31 GMT 46.742683 26.894669 34,000 332 434 64
2019-05-18 11:09:28 GMT 46.737701 26.898651 34,000 332 434 0
2019-05-18 11:09:20 GMT 46.724342 26.909088 34,000 332 434 64
2019-05-18 11:09:17 GMT 46.718307 26.913757 34,000 332 434 64
2019-05-18 11:09:10 GMT 46.706654 26.922821 33,975 332 434 0
2019-05-18 11:09:04 GMT 46.695831 26.931442 34,000 332 434 -64
2019-05-18 11:09:00 GMT 46.688263 26.937241 34,000 332 434 0
2019-05-18 11:08:56 GMT 46.679535 26.944103 33,975 332 434 64
2019-05-18 11:08:50 GMT 46.669922 26.951660 33,975 332 434 0
2019-05-18 11:08:42 GMT 46.657211 26.961617 33,975 332 434 -64
2019-05-18 11:08:39 GMT 46.650883 26.966629 33,975 332 434 -64
2019-05-18 11:08:34 GMT 46.641758 26.973839 34,000 332 434 0
2019-05-18 11:08:29 GMT 46.632843 26.980881 34,000 332 434 -64
2019-05-18 11:08:22 GMT 46.621181 26.989975 34,000 332 434 0
2019-05-18 11:08:18 GMT 46.614487 26.995283 34,000 332 434 0
2019-05-18 11:08:12 GMT 46.604328 27.003365 34,000 332 434 0
2019-05-18 11:08:09 GMT 46.596462 27.009544 34,000 332 434 0
2019-05-18 11:08:02 GMT 46.584091 27.019333 34,000 332 434 -64
2019-05-18 11:07:58 GMT 46.578075 27.023964 34,000 332 434 0
2019-05-18 11:07:52 GMT 46.559734 27.038521 34,000 332 435 0
2019-05-18 11:07:47 GMT 46.559734 27.038521 34,000 332 435 0
2019-05-18 11:07:40 GMT 46.544277 27.050743 34,000 332 434 -64
2019-05-18 11:07:37 GMT 46.542183 27.052460 34,000 332 435 -64
2019-05-18 11:07:27 GMT 46.523842 27.067017 34,000 332 435 64
2019-05-18 11:07:19 GMT 46.508900 27.078690 34,000 332 435 0
2019-05-18 11:07:16 GMT 46.504616 27.081985 34,000 332 436 64
2019-05-18 11:07:05 GMT 46.485577 27.097092 34,000 332 436 -64
2019-05-18 11:06:55 GMT 46.467884 27.110962 34,000 332 435 64
2019-05-18 11:06:45 GMT 46.449142 27.125713 34,000 332 435 0
2019-05-18 11:06:34 GMT 46.430969 27.140007 34,000 332 436 0
2019-05-18 11:06:26 GMT 46.413280 27.153740 34,000 332 436 0
2019-05-18 11:06:13 GMT 46.393021 27.169523 34,000 332 435 0
2019-05-18 11:06:04 GMT 46.376724 27.182184 34,000 332 435 -64
2019-05-18 11:06:01 GMT 46.371048 27.186474 34,000 332 435 0
2019-05-18 11:05:53 GMT 46.357498 27.196989 34,000 332 437 0
2019-05-18 11:05:50 GMT 46.352856 27.200569 34,000 332 436 0
2019-05-18 11:05:43 GMT 46.332596 27.216215 34,000 332 436 -64
2019-05-18 11:05:32 GMT 46.320419 27.225662 34,000 332 436 64
2019-05-18 11:05:29 GMT 46.315102 27.229752 34,000 333 437 64
2019-05-18 11:05:22 GMT 46.301193 27.240400 34,000 333 437 64
2019-05-18 11:05:18 GMT 46.295876 27.244514 34,000 333 437 64
2019-05-18 11:05:12 GMT 46.283340 27.254000 34,000 333 437 0
2019-05-18 11:05:07 GMT 46.276291 27.259493 34,000 333 437 -64
2019-05-18 11:05:01 GMT 46.264454 27.268410 34,000 333 437 -64
2019-05-18 11:04:56 GMT 46.256538 27.274384 34,000 333 437 64
2019-05-18 11:04:53 GMT 46.248810 27.280426 34,000 332 436 64
2019-05-18 11:04:50 GMT 46.244530 27.283653 34,000 333 437 64
2019-05-18 11:04:46 GMT 46.238010 27.288666 34,000 332 436 0
2019-05-18 11:04:41 GMT 46.226349 27.297743 34,000 332 437 0
2019-05-18 11:04:34 GMT 46.216370 27.305447 34,000 332 436 0
2019-05-18 11:04:30 GMT 46.208820 27.311119 34,000 332 436 64
2019-05-18 11:04:24 GMT 46.199387 27.318710 34,000 332 436 0
2019-05-18 11:04:20 GMT 46.190826 27.325411 34,000 332 436 -64
2019-05-18 11:04:15 GMT 46.181870 27.332268 34,000 332 436 0
2019-05-18 11:04:09 GMT 46.171906 27.339958 34,000 332 437 0
2019-05-18 11:04:03 GMT 46.162308 27.347382 34,000 332 436 64
2019-05-18 11:03:59 GMT 46.153748 27.353880 34,000 332 437 0
2019-05-18 11:03:53 GMT 46.143768 27.361584 34,000 332 437 -64
2019-05-18 11:03:50 GMT 46.137405 27.366608 34,000 332 438 0
2019-05-18 11:03:40 GMT 46.119209 27.380470 34,000 332 437 0
2019-05-18 11:03:32 GMT 46.106003 27.390793 34,000 332 437 0
2019-05-18 11:03:29 GMT 46.100681 27.394890 34,000 332 437 0
2019-05-18 11:03:26 GMT 46.095699 27.398666 34,000 332 438 0
2019-05-18 11:03:19 GMT 46.082474 27.408812 34,000 332 437 0
2019-05-18 11:03:16 GMT 46.075775 27.414116 34,000 332 438 0
2019-05-18 11:03:09 GMT 46.062561 27.424086 34,000 332 437 0
2019-05-18 11:03:05 GMT 46.057617 27.428038 34,000 332 437 64
2019-05-18 11:02:58 GMT 46.045395 27.437283 34,000 332 437 0
2019-05-18 11:02:55 GMT 46.037884 27.442955 34,000 332 438 -64
2019-05-18 11:02:48 GMT 46.027222 27.451195 34,000 332 437 0
2019-05-18 11:02:44 GMT 46.019669 27.456844 34,000 332 437 0
2019-05-18 11:02:38 GMT 46.008694 27.465271 34,000 332 437 -64
2019-05-18 11:02:33 GMT 46.001129 27.471113 34,000 332 437 0
2019-05-18 11:02:26 GMT 45.989090 27.480356 34,000 332 437 0
2019-05-18 11:02:23 GMT 45.982250 27.485527 34,000 332 437 0
2019-05-18 11:02:11 GMT 45.953384 27.507488 34,000 333 437 64
2019-05-18 11:02:06 GMT 45.950500 27.509766 34,000 333 437 0
2019-05-18 11:01:56 GMT 45.934845 27.521557 34,000 333 437 -64
2019-05-18 11:01:53 GMT 45.929371 27.525696 34,000 333 437 0
2019-05-18 11:01:46 GMT 45.916168 27.535690 34,000 333 437 64
2019-05-18 11:01:43 GMT 45.912189 27.538605 34,000 333 437 64
2019-05-18 11:01:35 GMT 45.896942 27.550226 34,000 333 437 0
2019-05-18 11:01:32 GMT 45.892639 27.553511 34,000 333 437 -64
2019-05-18 11:01:24 GMT 45.877880 27.564697 34,000 333 437 64
2019-05-18 11:01:21 GMT 45.872543 27.568785 34,000 333 437 64
2019-05-18 11:01:14 GMT 45.853676 27.583237 34,000 333 438 -64
2019-05-18 11:01:04 GMT 45.840958 27.592632 34,000 333 438 0
2019-05-18 11:00:59 GMT 45.833565 27.598343 34,000 333 438 0
2019-05-18 11:00:53 GMT 45.821732 27.607237 34,000 333 438 0
2019-05-18 11:00:49 GMT 45.815548 27.611870 34,000 333 438 0
2019-05-18 11:00:43 GMT 45.803696 27.620834 34,000 333 439 0
2019-05-18 11:00:38 GMT 45.795822 27.626797 34,000 332 438 0
2019-05-18 11:00:33 GMT 45.786221 27.634186 34,000 332 438 0
2019-05-18 11:00:27 GMT 45.776260 27.641739 34,000 332 439 0
2019-05-18 11:00:22 GMT 45.767506 27.648262 34,000 333 439 0
2019-05-18 11:00:17 GMT 45.756149 27.657051 34,000 333 439 0
2019-05-18 11:00:12 GMT 45.748932 27.662338 34,000 333 438 -64
2019-05-18 11:00:05 GMT 45.733521 27.674025 34,000 333 438 -64
2019-05-18 11:00:02 GMT 45.730267 27.676414 34,000 333 438 0
2019-05-18 10:59:54 GMT 45.717041 27.686552 34,000 333 438 0
2019-05-18 10:59:51 GMT 45.712051 27.690304 34,000 333 438 0
2019-05-18 10:59:41 GMT 45.693329 27.704237 34,000 333 438 0
2019-05-18 10:59:31 GMT 45.674789 27.718306 34,000 333 438 -64
2019-05-18 10:59:21 GMT 45.655735 27.732719 34,000 333 439 64
2019-05-18 10:59:10 GMT 45.637020 27.746796 34,000 333 439 -64
2019-05-18 10:58:59 GMT 45.618305 27.760872 34,000 333 439 0
2019-05-18 10:58:49 GMT 45.599258 27.775312 34,000 333 440 -64
2019-05-18 10:58:38 GMT 45.579849 27.789717 34,000 333 440 0
2019-05-18 10:58:27 GMT 45.560116 27.804474 34,000 333 440 0
2019-05-18 10:58:19 GMT 45.544147 27.816311 34,000 333 440 0
2019-05-18 10:58:16 GMT 45.539867 27.819593 34,000 333 440 0
2019-05-18 10:58:06 GMT 45.521484 27.833340 34,000 333 441 0
2019-05-18 10:57:58 GMT 45.502625 27.847202 34,000 333 441 0
2019-05-18 10:57:47 GMT 45.487865 27.858248 34,000 333 441 64
2019-05-18 10:57:44 GMT 45.482346 27.862179 34,000 333 441 0
2019-05-18 10:57:36 GMT 45.467617 27.873117 34,000 333 441 64
2019-05-18 10:57:33 GMT 45.462448 27.876938 34,000 333 441 64
2019-05-18 10:57:26 GMT 45.449066 27.886896 34,000 333 441 0
2019-05-18 10:57:23 GMT 45.444077 27.890690 34,000 333 441 0
2019-05-18 10:57:15 GMT 45.429817 27.900986 34,000 333 441 -64
2019-05-18 10:57:11 GMT 45.423660 27.905600 34,000 333 442 -64
2019-05-18 10:57:06 GMT 45.412170 27.914167 34,000 333 441 0
2019-05-18 10:57:01 GMT 45.402351 27.921417 34,000 333 441 0
2019-05-18 10:56:54 GMT 45.392063 27.928921 34,000 333 441 64
2019-05-18 10:56:49 GMT 45.383495 27.935286 34,000 333 442 64
2019-05-18 10:56:44 GMT 45.364929 27.949022 34,000 333 443 64
2019-05-18 10:56:39 GMT 45.364929 27.949022 34,000 333 443 0
2019-05-18 10:56:34 GMT 45.354813 27.956411 34,000 333 442 -64
2019-05-18 10:56:29 GMT 45.346394 27.962618 34,000 333 442 -64
2019-05-18 10:56:23 GMT 45.335083 27.970798 34,000 333 442 0
2019-05-18 10:56:17 GMT 45.324280 27.978909 34,000 333 442 64
2019-05-18 10:56:14 GMT 45.318420 27.983158 34,000 333 442 64
2019-05-18 10:56:07 GMT 45.307106 27.991423 34,000 333 442 0
2019-05-18 10:56:04 GMT 45.299889 27.996716 34,000 333 443 0
2019-05-18 10:55:57 GMT 45.285645 28.007223 34,000 333 443 0
2019-05-18 10:55:53 GMT 45.280151 28.011185 34,000 333 443 0
2019-05-18 10:55:42 GMT 45.260925 28.025272 34,000 333 443 -64
2019-05-18 10:55:32 GMT 45.242706 28.038612 34,000 333 443 0
2019-05-18 10:55:25 GMT 45.228477 28.049101 34,000 333 443 0
2019-05-18 10:55:21 GMT 45.222977 28.053066 34,000 333 443 0
2019-05-18 10:55:12 GMT 45.205994 28.065580 34,000 333 443 0
2019-05-18 10:55:01 GMT 45.186256 28.079849 34,000 333 443 0
2019-05-18 10:54:50 GMT 45.165817 28.094788 34,000 333 443 64
2019-05-18 10:54:39 GMT 45.146919 28.108654 34,000 333 443 0
2019-05-18 10:54:29 GMT 45.128220 28.122253 34,000 333 444 0
2019-05-18 10:54:20 GMT 45.110374 28.135450 34,000 333 444 0
2019-05-18 10:54:08 GMT 45.090271 28.150045 34,000 333 443 -64
2019-05-18 10:53:58 GMT 45.071087 28.164122 34,000 333 444 0
2019-05-18 10:53:49 GMT 45.054234 28.176313 34,000 333 444 0
2019-05-18 10:53:36 GMT 45.031906 28.192617 34,000 333 444 0
2019-05-18 10:53:28 GMT 45.015976 28.204260 34,000 333 444 0
2019-05-18 10:53:25 GMT 45.011490 28.207397 34,000 333 444 0
2019-05-18 10:53:15 GMT 44.992271 28.221464 34,000 333 444 0
2019-05-18 10:53:07 GMT 44.978027 28.231724 34,000 333 444 0
2019-05-18 10:53:02 GMT 44.969284 28.238264 34,000 333 444 0
2019-05-18 10:52:56 GMT 44.957916 28.246519 34,000 333 444 0
2019-05-18 10:52:52 GMT 44.950562 28.251812 34,000 333 444 0
2019-05-18 10:52:44 GMT 44.936642 28.261793 34,000 333 444 0
2019-05-18 10:52:40 GMT 44.929779 28.266972 34,000 333 445 0
2019-05-18 10:52:35 GMT 44.919838 28.273985 34,000 333 445 0
2019-05-18 10:52:32 GMT 44.912434 28.279278 34,000 333 445 0
2019-05-18 10:52:25 GMT 44.901123 28.287571 34,000 333 445 0
2019-05-18 10:52:21 GMT 44.891998 28.294083 34,000 333 445 64
2019-05-18 10:52:08 GMT 44.869186 28.310362 34,000 333 445 0
2019-05-18 10:52:03 GMT 44.861973 28.315720 34,000 334 445 0
2019-05-18 10:51:59 GMT 44.852692 28.322231 34,000 334 446 0
2019-05-18 10:51:54 GMT 44.844284 28.328247 34,000 334 446 0
2019-05-18 10:51:47 GMT 44.830719 28.337992 34,000 334 446 0
2019-05-18 10:51:44 GMT 44.825245 28.341980 34,000 334 446 64
2019-05-18 10:51:37 GMT 44.813736 28.350023 34,000 334 446 0
2019-05-18 10:51:33 GMT 44.805679 28.355844 34,000 334 446 0
2019-05-18 10:51:27 GMT 44.795731 28.362881 33,975 334 446 0
2019-05-18 10:51:23 GMT 44.785442 28.370251 34,000 334 446 -64
2019-05-18 10:51:12 GMT 44.767750 28.382845 34,000 334 447 -64
2019-05-18 10:51:05 GMT 44.754532 28.392221 34,000 334 447 64
2019-05-18 10:51:01 GMT 44.747498 28.397240 34,000 334 447 64
2019-05-18 10:50:53 GMT 44.732025 28.408421 34,000 334 449 -64
2019-05-18 10:50:50 GMT 44.727585 28.411495 34,000 334 449 -64
2019-05-18 10:50:41 GMT 44.709732 28.423985 34,000 334 449 0
2019-05-18 10:50:32 GMT 44.691498 28.437038 34,000 334 450 0
2019-05-18 10:50:19 GMT 44.669899 28.452177 34,000 334 450 0
2019-05-18 10:50:09 GMT 44.651371 28.465376 34,000 334 450 0
2019-05-18 10:50:00 GMT 44.632145 28.479109 34,000 334 450 64
2019-05-18 10:49:47 GMT 44.610497 28.494247 34,000 334 450 64
2019-05-18 10:49:36 GMT 44.590073 28.508671 34,000 334 450 0
2019-05-18 10:49:27 GMT 44.571350 28.521881 34,000 334 450 0
2019-05-18 10:49:15 GMT 44.550568 28.536465 34,000 334 450 0
2019-05-18 10:49:05 GMT 44.530846 28.550385 34,000 334 450 0
2019-05-18 10:48:53 GMT 44.510082 28.564922 34,000 334 450 64
2019-05-18 10:48:43 GMT 44.490856 28.578522 34,000 334 449 -64
2019-05-18 10:48:33 GMT 44.472145 28.591583 34,000 334 449 0
2019-05-18 10:48:22 GMT 44.452221 28.605652 34,000 334 449 64
2019-05-18 10:48:12 GMT 44.432808 28.619184 34,000 334 449 -64
2019-05-18 10:48:01 GMT 44.412743 28.633251 34,000 334 449 0
2019-05-18 10:47:49 GMT 44.391281 28.648392 34,000 334 449 -64
2019-05-18 10:47:37 GMT 44.368286 28.664671 34,000 334 448 64
2019-05-18 10:47:27 GMT 44.350597 28.677197 34,000 333 449 64
2019-05-18 10:47:16 GMT 44.329468 28.692169 34,000 334 448 -64
2019-05-18 10:47:08 GMT 44.313679 28.703323 34,000 334 448 0
2019-05-18 10:46:56 GMT 44.292221 28.718597 34,000 334 448 -64
2019-05-18 10:46:43 GMT 44.269592 28.734348 34,000 334 448 64
2019-05-18 10:46:34 GMT 44.252232 28.746531 34,000 334 447 -64
2019-05-18 10:46:30 GMT 44.245529 28.751221 34,000 334 446 64
2019-05-18 10:46:22 GMT 44.229767 28.762339 34,000 334 446 64
2019-05-18 10:46:14 GMT 44.209854 28.776266 34,000 334 446 0
2019-05-18 10:46:01 GMT 44.185104 28.793400 34,000 334 446 0
2019-05-18 10:45:49 GMT 44.169159 28.804428 34,000 334 445 -64
2019-05-18 10:45:39 GMT 44.148884 28.818512 34,000 334 445 64
2019-05-18 10:45:30 GMT 44.124538 28.835318 34,000 334 445 0
2019-05-18 10:45:19 GMT 44.114204 28.842512 34,000 334 444 -64
2019-05-18 10:45:14 GMT 44.103561 28.849907 34,000 334 444 0
2019-05-18 10:45:09 GMT 44.095165 28.855722 34,000 334 444 64
2019-05-18 10:45:04 GMT 44.086227 28.861935 34,000 334 444 0
2019-05-18 10:44:58 GMT 44.074905 28.869835 34,000 334 444 0
2019-05-18 10:44:53 GMT 44.065292 28.876350 34,000 334 444 0
2019-05-18 10:44:46 GMT 44.053967 28.884233 34,000 334 444 0
2019-05-18 10:44:43 GMT 44.046936 28.889189 34,000 334 444 0
2019-05-18 10:44:35 GMT 44.033390 28.898685 34,000 334 444 -64
2019-05-18 10:44:30 GMT 44.023056 28.905684 34,000 334 443 0
2019-05-18 10:44:25 GMT 44.014999 28.911373 34,000 334 443 64
2019-05-18 10:44:21 GMT 44.007786 28.916538 34,000 334 444 0
2019-05-18 10:44:14 GMT 43.995262 28.925106 34,000 334 443 -64
2019-05-18 10:44:10 GMT 43.986511 28.931253 34,000 334 443 64
2019-05-18 10:44:04 GMT 43.976532 28.938116 34,000 334 443 64
2019-05-18 10:43:58 GMT 43.964859 28.946228 34,000 334 444 0
2019-05-18 10:43:53 GMT 43.956802 28.951849 34,000 334 442 0
2019-05-18 10:43:47 GMT 43.945312 28.959764 34,000 334 442 0
2019-05-18 10:43:41 GMT 43.934326 28.967352 34,000 334 442 0
2019-05-18 10:43:36 GMT 43.923660 28.974716 34,000 334 442 0
2019-05-18 10:43:32 GMT 43.917522 28.978991 34,000 334 442 64
2019-05-18 10:43:26 GMT 43.905834 28.987034 34,000 334 442 0
2019-05-18 10:43:21 GMT 43.897083 28.993052 34,000 334 442 0
2019-05-18 10:43:16 GMT 43.877655 29.006460 34,000 334 441 0
2019-05-18 10:43:10 GMT 43.877655 29.006460 34,000 334 442 0
2019-05-18 10:42:59 GMT 43.857056 29.020704 34,000 334 441 0
2019-05-18 10:42:54 GMT 43.848312 29.026709 34,000 334 441 0
2019-05-18 10:42:49 GMT 43.839218 29.033072 34,000 334 441 0
2019-05-18 10:42:38 GMT 43.817780 29.047852 34,000 334 440 0
2019-05-18 10:42:33 GMT 43.809334 29.053673 34,000 334 440 0
2019-05-18 10:42:27 GMT 43.798347 29.061062 34,000 334 440 0
2019-05-18 10:42:21 GMT 43.787888 29.068419 34,000 334 440 -64
2019-05-18 10:42:16 GMT 43.779144 29.074423 34,000 334 440 0
2019-05-18 10:42:10 GMT 43.767811 29.082184 34,000 334 439 0
2019-05-18 10:42:05 GMT 43.758041 29.088860 34,000 334 439 -64
2019-05-18 10:41:59 GMT 43.748257 29.095524 34,000 334 439 0
2019-05-18 10:41:55 GMT 43.739822 29.101377 34,000 334 439 0
2019-05-18 10:41:47 GMT 43.725906 29.110640 34,000 338 437 0
2019-05-18 10:41:43 GMT 43.717850 29.115622 34,000 338 437 0
2019-05-18 10:41:36 GMT 43.703938 29.123383 34,000 340 436 -64
2019-05-18 10:41:33 GMT 43.699329 29.125607 34,000 341 435 0
2019-05-18 10:41:26 GMT 43.683517 29.132484 34,000 344 434 0
2019-05-18 10:41:22 GMT 43.678570 29.134369 34,000 346 434 64
2019-05-18 10:41:15 GMT 43.665348 29.138817 33,975 348 433 64
2019-05-18 10:41:12 GMT 43.658272 29.140842 33,975 350 432 0
2019-05-18 10:41:03 GMT 43.641792 29.144308 34,000 353 430 -192
2019-05-18 10:41:00 GMT 43.635818 29.145323 34,000 353 429 64
2019-05-18 10:40:54 GMT 43.623276 29.147751 34,000 353 430 192
2019-05-18 10:40:49 GMT 43.614532 29.149282 33,975 353 430 64
2019-05-18 10:40:44 GMT 43.601120 29.151711 34,000 353 430 0
2019-05-18 10:40:39 GMT 43.594448 29.153072 34,000 353 430 0
2019-05-18 10:40:32 GMT 43.580521 29.155479 34,000 353 430 0
2019-05-18 10:40:29 GMT 43.573826 29.156864 34,000 353 430 -64
2019-05-18 10:40:22 GMT 43.559921 29.159439 34,000 353 430 -64
2019-05-18 10:40:18 GMT 43.552872 29.160589 34,000 353 430 -64
2019-05-18 10:40:10 GMT 43.537079 29.163527 34,000 353 430 -64
2019-05-18 10:40:06 GMT 43.528854 29.165104 34,025 353 429 -64
2019-05-18 10:40:01 GMT 43.517349 29.167105 34,000 353 429 64
2019-05-18 10:39:56 GMT 43.509117 29.168701 34,000 353 429 64
2019-05-18 10:39:49 GMT 43.494873 29.171251 34,000 353 430 64
2019-05-18 10:39:45 GMT 43.487843 29.172428 34,000 353 429 0
2019-05-18 10:39:38 GMT 43.473907 29.175026 34,000 353 429 -64
2019-05-18 10:39:34 GMT 43.466522 29.176418 34,000 353 429 -64
2019-05-18 10:39:27 GMT 43.452621 29.178793 34,000 353 429 64
2019-05-18 10:39:24 GMT 43.445618 29.180199 34,000 353 429 64
2019-05-18 10:39:16 GMT 43.429825 29.182945 34,000 353 429 0
2019-05-18 10:39:13 GMT 43.424671 29.183937 34,000 353 429 -64
2019-05-18 10:39:03 GMT 43.403870 29.187737 34,000 353 428 -64
2019-05-18 10:38:54 GMT 43.387756 29.190477 34,000 353 428 0
2019-05-18 10:38:51 GMT 43.381760 29.191696 34,000 353 428 0
2019-05-18 10:38:45 GMT 43.366791 29.194250 34,000 353 428 -64
2019-05-18 10:38:41 GMT 43.361298 29.195272 34,000 353 428 -64
2019-05-18 10:38:31 GMT 43.340553 29.199043 34,000 353 428 0
2019-05-18 10:38:20 GMT 43.320114 29.202837 34,000 353 428 0
2019-05-18 10:38:09 GMT 43.297958 29.206760 34,000 353 428 0
2019-05-18 10:37:58 GMT 43.277569 29.210554 34,000 353 428 64
2019-05-18 10:37:48 GMT 43.257130 29.214151 34,000 353 428 -64
2019-05-18 10:37:37 GMT 43.235504 29.218140 34,000 353 428 0
2019-05-18 10:37:27 GMT 43.215420 29.221737 34,000 353 427 -64
2019-05-18 10:37:16 GMT 43.193447 29.225660 34,000 353 427 64
2019-05-18 10:37:05 GMT 43.172653 29.229254 34,000 353 427 0
2019-05-18 10:36:54 GMT 43.151875 29.233049 34,000 353 426 -64
2019-05-18 10:36:43 GMT 43.130447 29.236982 34,000 353 426 0
2019-05-18 10:36:33 GMT 43.110538 29.240635 34,000 353 426 0
2019-05-18 10:36:22 GMT 43.089401 29.244364 34,000 353 426 64
2019-05-18 10:36:12 GMT 43.068268 29.248156 34,000 353 426 0
2019-05-18 10:36:01 GMT 43.046677 29.252121 34,000 353 426 0
2019-05-18 10:35:50 GMT 43.026047 29.255741 34,000 353 426 -64
2019-05-18 10:35:40 GMT 43.005657 29.259338 34,000 353 426 64
2019-05-18 10:35:29 GMT 42.984192 29.263235 34,000 353 426 0
2019-05-18 10:35:18 GMT 42.963387 29.266859 34,000 353 426 0
2019-05-18 10:35:07 GMT 42.941254 29.270836 34,000 353 426 0
2019-05-18 10:34:57 GMT 42.922047 29.274248 34,000 353 426 0
2019-05-18 10:34:47 GMT 42.900558 29.278053 34,000 353 426 -64
2019-05-18 10:34:36 GMT 42.879456 29.281822 34,000 353 426 -64
2019-05-18 10:34:25 GMT 42.860596 29.285080 34,000 353 425 64
2019-05-18 10:34:22 GMT 42.853546 29.286293 34,000 353 426 0
2019-05-18 10:34:13 GMT 42.836720 29.289158 34,000 353 426 0
2019-05-18 10:34:05 GMT 42.809784 29.294022 34,000 353 426 64
2019-05-18 10:34:00 GMT 42.809784 29.294022 34,000 353 426 64
2019-05-18 10:33:54 GMT 42.799290 29.295874 34,000 353 426 0
2019-05-18 10:33:50 GMT 42.784882 29.298477 34,000 353 426 -64
2019-05-18 10:33:44 GMT 42.778854 29.299515 34,000 353 426 -64
2019-05-18 10:33:39 GMT 42.769089 29.301224 34,000 353 426 0
2019-05-18 10:33:30 GMT 42.751572 29.304306 34,000 353 426 -64
2019-05-18 10:33:22 GMT 42.736629 29.307053 34,000 353 426 0
2019-05-18 10:33:19 GMT 42.729603 29.308266 34,000 353 426 64
2019-05-18 10:33:09 GMT 42.710049 29.311651 34,000 353 427 0
2019-05-18 10:32:58 GMT 42.688076 29.315611 34,000 353 426 0
2019-05-18 10:32:48 GMT 42.668152 29.319077 34,000 353 426 0
2019-05-18 10:32:37 GMT 42.646179 29.322823 34,000 353 427 0
2019-05-18 10:32:25 GMT 42.625416 29.326597 34,000 353 427 0
2019-05-18 10:32:17 GMT 42.608597 29.329500 34,000 353 426 -64
2019-05-18 10:32:14 GMT 42.602234 29.330563 34,000 353 426 -64
2019-05-18 10:32:04 GMT 42.583847 29.333815 34,000 353 426 0
2019-05-18 10:31:54 GMT 42.561874 29.337584 34,000 353 426 0
2019-05-18 10:31:45 GMT 42.546280 29.340330 34,000 353 426 0
2019-05-18 10:31:34 GMT 42.523956 29.344109 34,000 353 426 0
2019-05-18 10:31:31 GMT 42.517776 29.345295 34,000 353 426 -64
2019-05-18 10:31:23 GMT 42.503677 29.347729 34,025 353 425 -64
2019-05-18 10:31:20 GMT 42.496979 29.348763 34,025 353 425 64
2019-05-18 10:31:12 GMT 42.482574 29.351349 34,000 353 425 64
2019-05-18 10:31:09 GMT 42.475891 29.352531 34,000 353 425 64
2019-05-18 10:31:02 GMT 42.461830 29.354958 34,000 353 425 64
2019-05-18 10:30:58 GMT 42.454422 29.356155 34,000 353 425 0
2019-05-18 10:30:52 GMT 42.441879 29.358339 34,000 353 425 0
2019-05-18 10:30:49 GMT 42.436043 29.359365 34,000 353 425 0
2019-05-18 10:30:41 GMT 42.421284 29.361984 34,000 353 425 0
2019-05-18 10:30:38 GMT 42.415791 29.362814 34,000 353 425 0
2019-05-18 10:30:35 GMT 42.409973 29.363832 34,000 353 425 64
2019-05-18 10:30:31 GMT 42.401035 29.365561 34,000 353 425 64
2019-05-18 10:30:28 GMT 42.393677 29.366768 34,000 353 424 64
2019-05-18 10:30:24 GMT 42.388184 29.367828 34,000 353 424 0
2019-05-18 10:30:21 GMT 42.380264 29.369202 33,975 353 424 0
2019-05-18 10:30:17 GMT 42.373398 29.370388 34,000 353 424 -64
2019-05-18 10:30:13 GMT 42.366348 29.371574 34,000 353 424 -64
2019-05-18 10:30:09 GMT 42.358475 29.372948 33,975 353 424 -64
2019-05-18 10:30:05 GMT 42.351608 29.374319 34,000 353 423 64
2019-05-18 10:30:02 GMT 42.345779 29.375334 34,000 353 423 128
2019-05-18 10:29:58 GMT 42.337864 29.376740 33,950 353 424 256
2019-05-18 10:29:55 GMT 42.329296 29.378271 33,950 353 424 64
2019-05-18 10:29:49 GMT 42.319656 29.380001 34,000 353 424 -640
2019-05-18 10:29:46 GMT 42.313339 29.381187 34,000 353 424 -384
2019-05-18 10:29:39 GMT 42.294292 29.384468 34,075 353 424 -384
2019-05-18 10:29:29 GMT 42.281071 29.386831 34,125 353 422 -128
2019-05-18 10:29:26 GMT 42.274879 29.387917 34,125 353 422 0
2019-05-18 10:29:21 GMT 42.265614 29.389578 34,125 353 422 0
2019-05-18 10:29:15 GMT 42.254627 29.391495 34,125 353 422 -64
2019-05-18 10:29:06 GMT 42.235748 29.394732 34,125 353 422 64
2019-05-18 10:29:02 GMT 42.228699 29.395981 34,100 353 422 0
2019-05-18 10:28:56 GMT 42.215153 29.398392 34,100 353 422 0
2019-05-18 10:28:52 GMT 42.209290 29.399414 34,100 353 422 0
2019-05-18 10:28:46 GMT 42.197800 29.401474 34,100 353 422 0
2019-05-18 10:28:43 GMT 42.191086 29.402672 34,100 353 422 0
2019-05-18 10:28:39 GMT 42.184570 29.403660 34,100 353 422 0
2019-05-18 10:28:33 GMT 42.172558 29.405739 34,100 353 422 0
2019-05-18 10:28:29 GMT 42.165161 29.407091 34,100 353 422 0
2019-05-18 10:28:24 GMT 42.154358 29.409027 34,100 353 422 0
2019-05-18 10:28:19 GMT 42.146301 29.410400 34,100 353 422 0
2019-05-18 10:28:11 GMT 42.130325 29.413147 34,100 353 421 0
2019-05-18 10:28:00 GMT 42.108360 29.416916 34,125 353 421 0
2019-05-18 10:27:52 GMT 42.092907 29.419662 34,100 353 421 64
2019-05-18 10:27:49 GMT 42.087753 29.420513 34,100 353 421 64
2019-05-18 10:27:42 GMT 42.071957 29.423431 34,100 353 421 0
2019-05-18 10:27:39 GMT 42.068001 29.424133 34,100 353 421 0
2019-05-18 10:27:30 GMT 42.050674 29.427006 34,100 353 421 0
2019-05-18 10:27:20 GMT 42.030579 29.430437 34,100 353 421 0
2019-05-18 10:27:17 GMT 42.025955 29.431313 34,100 353 421 0
2019-05-18 10:27:10 GMT 42.010529 29.433870 34,100 353 422 0
2019-05-18 10:27:06 GMT 42.003803 29.435120 34,100 353 422 0
2019-05-18 10:27:02 GMT 41.997299 29.436117 34,100 353 422 -64
2019-05-18 10:26:58 GMT 41.988007 29.437679 34,100 353 422 -64
2019-05-18 10:26:55 GMT 41.982857 29.438505 34,125 353 422 -64
2019-05-18 10:26:47 GMT 41.968285 29.441124 34,125 353 421 0
2019-05-18 10:26:43 GMT 41.960037 29.442486 34,125 353 421 64
2019-05-18 10:26:37 GMT 41.948219 29.444510 34,125 353 421 0
2019-05-18 10:26:32 GMT 41.938770 29.446106 34,125 353 421 0
2019-05-18 10:26:26 GMT 41.926895 29.448166 34,125 353 421 64
2019-05-18 10:26:22 GMT 41.918659 29.449492 34,100 353 421 0
2019-05-18 10:26:16 GMT 41.907162 29.451406 34,125 353 421 -64
2019-05-18 10:26:10 GMT 41.896683 29.453096 34,125 353 421 -64
2019-05-18 10:26:05 GMT 41.886215 29.454985 34,125 353 421 0
2019-05-18 10:26:00 GMT 41.876251 29.456581 34,125 353 421 64
2019-05-18 10:25:53 GMT 41.864273 29.458590 34,125 353 421 0
2019-05-18 10:25:49 GMT 41.856190 29.459967 34,125 353 421 -64
2019-05-18 10:25:42 GMT 41.841751 29.462399 34,125 353 420 -64
2019-05-18 10:25:38 GMT 41.834541 29.463736 34,125 353 420 0
2019-05-18 10:25:33 GMT 41.823742 29.465651 34,125 353 420 64
2019-05-18 10:25:27 GMT 41.813641 29.467377 34,125 353 420 64
2019-05-18 10:25:22 GMT 41.803677 29.469101 34,125 353 419 0
2019-05-18 10:25:19 GMT 41.797119 29.470263 34,125 353 419 -64
2019-05-18 10:25:16 GMT 41.791294 29.471336 34,125 353 418 -128
2019-05-18 10:25:09 GMT 41.777561 29.473700 34,125 353 418 64
2019-05-18 10:25:01 GMT 41.762989 29.476128 34,100 353 417 128
2019-05-18 10:24:58 GMT 41.756470 29.477318 34,100 353 417 0
2019-05-18 10:24:53 GMT 41.747723 29.478872 34,100 353 417 -64
2019-05-18 10:24:48 GMT 41.736557 29.480749 34,125 353 416 -64
2019-05-18 10:24:42 GMT 41.727448 29.482498 34,100 353 416 64
2019-05-18 10:24:37 GMT 41.716644 29.484371 34,100 353 415 64
2019-05-18 10:24:32 GMT 41.707535 29.485931 34,125 353 415 -64
2019-05-18 10:24:27 GMT 41.696560 29.487944 34,125 353 414 0
2019-05-18 10:24:19 GMT 41.682449 29.490551 34,100 352 415 64
2019-05-18 10:24:16 GMT 41.676636 29.491585 34,100 352 415 128
2019-05-18 10:24:09 GMT 41.664093 29.493984 34,100 352 416 64
2019-05-18 10:24:06 GMT 41.655670 29.495544 34,100 352 416 -64
2019-05-18 10:23:57 GMT 41.641937 29.498291 34,100 352 416 -64
2019-05-18 10:23:54 GMT 41.635624 29.499441 34,125 352 416 0
2019-05-18 10:23:47 GMT 41.621891 29.502060 34,125 352 415 0
2019-05-18 10:23:43 GMT 41.615002 29.503401 34,125 352 415 -64
2019-05-18 10:23:38 GMT 41.604034 29.505470 34,125 352 414 -64
2019-05-18 10:23:34 GMT 41.595963 29.507042 34,125 352 414 0
2019-05-18 10:23:26 GMT 41.581192 29.509777 34,125 353 413 64
2019-05-18 10:23:22 GMT 41.575195 29.510775 34,125 353 413 0
2019-05-18 10:23:15 GMT 41.562286 29.513023 34,125 354 412 -64
2019-05-18 10:23:11 GMT 41.553223 29.514397 34,125 354 412 0
2019-05-18 10:23:05 GMT 41.541687 29.515581 34,100 358 409 64
2019-05-18 10:23:01 GMT 41.535351 29.515793 34,100 359 409 64
2019-05-18 10:22:54 GMT 41.521271 29.516270 34,100 359 409 -64
2019-05-18 10:22:51 GMT 41.515274 29.516644 34,100 359 409 -64
2019-05-18 10:22:40 GMT 41.496059 29.517324 34,100 359 409 64
2019-05-18 10:22:30 GMT 41.476322 29.518028 34,100 359 409 0
2019-05-18 10:22:20 GMT 41.456223 29.518890 34,100 359 409 64
2019-05-18 10:22:11 GMT 41.435448 29.519562 34,100 359 410 0
2019-05-18 10:22:00 GMT 41.417946 29.520264 34,100 359 411 0
2019-05-18 10:21:48 GMT 41.396301 29.520950 34,100 359 412 64
2019-05-18 10:21:40 GMT 41.381012 29.521423 34,100 359 413 -64
2019-05-18 10:21:37 GMT 41.376049 29.521637 34,100 359 413 -64
2019-05-18 10:21:30 GMT 41.361099 29.522156 34,100 359 414 -64
2019-05-18 10:21:27 GMT 41.355473 29.522448 34,125 359 414 -128
2019-05-18 10:21:16 GMT 41.334663 29.523134 34,125 359 415 64
2019-05-18 10:21:06 GMT 41.314785 29.524010 34,125 359 416 0
2019-05-18 10:20:57 GMT 41.298981 29.524536 34,125 359 416 -128
2019-05-18 10:20:54 GMT 41.293488 29.524902 34,125 359 416 0
2019-05-18 10:20:45 GMT 41.273911 29.525381 34,125 359 416 192
2019-05-18 10:20:34 GMT 41.253849 29.525883 34,100 359 417 -384
2019-05-18 10:20:23 GMT 41.233040 29.526567 34,125 359 415 192
2019-05-18 10:20:12 GMT 41.210739 29.527254 34,075 359 418 64
2019-05-18 10:20:01 GMT 41.190491 29.527943 34,125 359 418 -256
2019-05-18 10:19:51 GMT 41.170898 29.528625 34,125 359 418 64
2019-05-18 10:19:42 GMT 41.152737 29.529003 34,100 359 418 -64
2019-05-18 10:19:39 GMT 41.148781 29.529190 34,100 359 418 -64
2019-05-18 10:19:31 GMT 41.132126 29.529541 34,125 359 418 -128
2019-05-18 10:19:28 GMT 41.126816 29.529663 34,125 359 418 -64
2019-05-18 10:19:21 GMT 41.113586 29.530029 34,125 359 418 0
2019-05-18 10:19:18 GMT 41.108276 29.530212 34,125 359 418 0
2019-05-18 10:19:14 GMT 41.097427 29.530518 34,125 344 427 512
2019-05-18 10:19:10 GMT 41.091614 29.530687 34,125 359 418 64
2019-05-18 10:19:07 GMT 41.086441 29.530884 34,100 358 419 -128
2019-05-18 10:19:00 GMT 41.071014 29.531921 34,125 356 420 -192
2019-05-18 10:18:56 GMT 41.050919 29.535034 34,125 344 427 512
2019-05-18 10:18:49 GMT 41.050919 29.535034 34,125 351 422 64
2019-05-18 10:18:46 GMT 41.044052 29.536560 34,125 350 423 128
2019-05-18 10:18:38 GMT 41.030136 29.540527 34,100 346 426 128
2019-05-18 10:18:35 GMT 41.022949 29.543049 34,100 344 427 0
2019-05-18 10:18:28 GMT 41.009720 29.548401 34,150 343 427 -192
2019-05-18 10:18:24 GMT 41.002853 29.551147 34,150 344 427 320
2019-05-18 10:18:17 GMT 40.988434 29.556641 34,075 344 427 128
2019-05-18 10:18:12 GMT 40.979702 29.559902 34,075 345 429 0
2019-05-18 10:18:05 GMT 40.968204 29.564209 34,075 345 429 0
2019-05-18 10:18:01 GMT 40.960476 29.566956 34,075 345 430 -128
2019-05-18 10:17:54 GMT 40.944321 29.572948 34,100 345 432 -128
2019-05-18 10:17:51 GMT 40.939667 29.574635 34,125 345 432 0
2019-05-18 10:17:45 GMT 40.926315 29.579651 34,100 345 433 64
2019-05-18 10:17:40 GMT 40.919601 29.582062 34,100 345 433 0
2019-05-18 10:17:34 GMT 40.906906 29.586670 34,125 345 432 -64
2019-05-18 10:17:29 GMT 40.897614 29.590088 34,100 345 432 128
2019-05-18 10:17:22 GMT 40.884567 29.594910 34,100 345 434 64
2019-05-18 10:17:19 GMT 40.877193 29.597668 34,100 345 434 64
2019-05-18 10:17:11 GMT 40.863323 29.602661 34,100 345 434 0
2019-05-18 10:17:08 GMT 40.856598 29.605042 34,100 345 434 0
2019-05-18 10:17:02 GMT 40.842682 29.610352 34,100 344 434 -128
2019-05-18 10:16:56 GMT 40.833759 29.613647 34,125 345 435 -256
2019-05-18 10:16:50 GMT 40.822960 29.617767 34,125 345 435 128
2019-05-18 10:16:45 GMT 40.813698 29.621201 34,125 345 434 64
2019-05-18 10:16:41 GMT 40.804092 29.624756 34,125 345 434 -64
2019-05-18 10:16:35 GMT 40.793930 29.628540 34,125 345 434 -64
2019-05-18 10:16:28 GMT 40.780365 29.633560 34,125 345 434 64
2019-05-18 10:16:23 GMT 40.771637 29.636780 34,125 345 434 128
2019-05-18 10:16:19 GMT 40.761837 29.640427 34,100 345 434 64
2019-05-18 10:16:13 GMT 40.750671 29.644714 34,125 345 434 -64
2019-05-18 10:16:08 GMT 40.741776 29.647980 34,125 345 434 0
2019-05-18 10:16:02 GMT 40.729065 29.652771 34,125 345 434 0
2019-05-18 10:15:58 GMT 40.722015 29.655334 34,125 345 433 -64
2019-05-18 10:15:52 GMT 40.708969 29.660156 34,125 345 433 0
2019-05-18 10:15:48 GMT 40.700062 29.663399 34,125 345 433 0
2019-05-18 10:15:40 GMT 40.687363 29.668213 34,125 345 433 64
2019-05-18 10:15:30 GMT 40.666080 29.676132 34,100 345 433 0
2019-05-18 10:15:22 GMT 40.651463 29.681625 34,125 345 433 -64
2019-05-18 10:15:17 GMT 40.643417 29.684509 34,125 345 433 64
2019-05-18 10:15:14 GMT 40.636890 29.687119 34,100 345 433 64
2019-05-18 10:15:07 GMT 40.624008 29.691711 34,100 345 433 0
2019-05-18 10:15:02 GMT 40.611286 29.696358 34,125 345 433 -64
2019-05-18 10:14:56 GMT 40.597046 29.701660 34,125 345 432 0
2019-05-18 10:14:53 GMT 40.597046 29.701660 34,125 345 432 0
2019-05-18 10:14:47 GMT 40.583313 29.706848 34,125 345 432 0
2019-05-18 10:14:43 GMT 40.576607 29.709215 34,125 345 432 64
2019-05-18 10:14:36 GMT 40.562874 29.714397 34,125 345 431 64
2019-05-18 10:14:32 GMT 40.554310 29.717457 34,125 345 432 64
2019-05-18 10:14:24 GMT 40.539368 29.722961 34,100 345 432 0
2019-05-18 10:14:20 GMT 40.532848 29.725384 34,100 345 432 -64
2019-05-18 10:14:11 GMT 40.515858 29.731564 34,125 345 431 64
2019-05-18 10:14:01 GMT 40.494396 29.739428 34,100 345 430 -64
2019-05-18 10:13:49 GMT 40.474472 29.746857 34,100 345 430 0
2019-05-18 10:13:40 GMT 40.454041 29.754211 34,100 345 430 0
2019-05-18 10:13:30 GMT 40.438251 29.760029 34,100 345 430 0
2019-05-18 10:13:23 GMT 40.424194 29.765198 34,100 345 430 0
2019-05-18 10:13:20 GMT 40.417145 29.767578 34,100 345 431 0
2019-05-18 10:13:17 GMT 40.412186 29.769516 34,100 345 431 0
2019-05-18 10:13:06 GMT 40.391922 29.777039 34,125 345 430 -64
2019-05-18 10:12:57 GMT 40.373219 29.784060 34,100 344 429 64
2019-05-18 10:12:46 GMT 40.352097 29.791809 34,125 345 430 -64
2019-05-18 10:12:35 GMT 40.331497 29.799561 34,100 345 429 0
2019-05-18 10:12:25 GMT 40.313141 29.806213 34,125 345 429 -64
2019-05-18 10:12:15 GMT 40.292870 29.813772 34,125 345 429 64
2019-05-18 10:12:05 GMT 40.273132 29.821138 34,100 344 428 64
2019-05-18 10:11:53 GMT 40.250473 29.829773 34,125 344 428 -64
2019-05-18 10:11:43 GMT 40.230743 29.837158 34,125 344 428 64
2019-05-18 10:11:32 GMT 40.210659 29.844860 34,100 344 427 0
2019-05-18 10:11:22 GMT 40.191238 29.852051 34,125 344 427 0
2019-05-18 10:11:09 GMT 40.167225 29.861153 34,125 344 427 0
2019-05-18 10:10:58 GMT 40.146286 29.868896 34,100 345 427 -64
2019-05-18 10:10:47 GMT 40.126167 29.876259 34,125 345 426 0
2019-05-18 10:10:37 GMT 40.105225 29.883972 34,125 345 425 64
2019-05-18 10:10:25 GMT 40.083252 29.891907 34,100 345 425 64
2019-05-18 10:10:15 GMT 40.064209 29.898926 34,100 345 425 0
2019-05-18 10:10:03 GMT 40.043793 29.906311 34,100 345 424 -64
2019-05-18 10:09:52 GMT 40.022690 29.914062 34,125 345 424 0
2019-05-18 10:09:41 GMT 40.000031 29.922119 34,100 345 424 128
2019-05-18 10:09:30 GMT 39.979061 29.929628 34,100 345 423 -128
2019-05-18 10:09:19 GMT 39.957275 29.937181 34,125 345 423 64
2019-05-18 10:09:08 GMT 39.939423 29.943359 34,100 346 424 0
2019-05-18 10:08:57 GMT 39.918137 29.950762 34,100 346 423 -64
2019-05-18 10:08:46 GMT 39.897720 29.957626 34,125 346 423 -64
2019-05-18 10:08:35 GMT 39.874554 29.965515 34,125 346 424 -64
2019-05-18 10:08:25 GMT 39.854767 29.972595 34,125 345 424 64
2019-05-18 10:08:14 GMT 39.834686 29.979601 34,125 345 423 0
2019-05-18 10:08:09 GMT 39.827488 29.982361 34,100 345 423 64
2019-05-18 10:08:03 GMT 39.814270 29.987183 34,100 345 424 0
2019-05-18 10:07:58 GMT 39.804817 29.990601 34,100 345 424 -64
2019-05-18 10:07:52 GMT 39.792805 29.995056 34,125 345 424 -64
2019-05-18 10:07:49 GMT 39.788338 29.996765 34,125 345 424 0
2019-05-18 10:07:40 GMT 39.771019 30.003113 34,125 345 423 0
2019-05-18 10:07:37 GMT 39.767250 30.004517 34,100 345 423 0
2019-05-18 10:07:27 GMT 39.748348 30.011353 34,125 345 423 -64
2019-05-18 10:07:21 GMT 39.735123 30.016319 34,125 345 423 -64
2019-05-18 10:07:16 GMT 39.727570 30.019068 34,125 345 421 -64
2019-05-18 10:07:07 GMT 39.707661 30.026306 34,125 345 421 0
2019-05-18 10:06:55 GMT 39.688297 30.033508 34,125 345 421 64
2019-05-18 10:06:45 GMT 39.668697 30.040527 34,125 345 420 0
2019-05-18 10:06:35 GMT 39.648102 30.047907 34,125 345 420 -64
2019-05-18 10:06:24 GMT 39.628895 30.054810 34,100 345 420 64
2019-05-18 10:06:11 GMT 39.605015 30.063354 34,125 345 418 0
2019-05-18 10:06:02 GMT 39.588181 30.069401 34,125 345 418 -64
2019-05-18 10:05:51 GMT 39.566936 30.076782 34,125 345 417 64
2019-05-18 10:05:41 GMT 39.546638 30.083984 34,125 345 417 0
2019-05-18 10:05:28 GMT 39.523640 30.092041 34,100 345 416 0
2019-05-18 10:05:16 GMT 39.502533 30.099434 34,125 345 415 0
2019-05-18 10:05:08 GMT 39.486237 30.105106 34,125 345 414 -64
2019-05-18 10:05:00 GMT 39.470943 30.110596 34,125 345 414 0
2019-05-18 10:04:55 GMT 39.464767 30.112808 34,100 345 414 64
2019-05-18 10:04:40 GMT 39.435612 30.123474 34,100 345 413 0
2019-05-18 10:04:33 GMT 39.423740 30.127747 34,100 345 413 -64
2019-05-18 10:04:27 GMT 39.409515 30.132931 34,125 345 412 -64
2019-05-18 10:04:22 GMT 39.402786 30.135319 34,125 345 412 64
2019-05-18 10:04:16 GMT 39.391479 30.139404 34,100 345 411 -64
2019-05-18 10:04:12 GMT 39.383057 30.142544 34,125 345 411 -64
2019-05-18 10:04:05 GMT 39.372070 30.146484 34,125 345 411 0
2019-05-18 10:04:01 GMT 39.362106 30.150085 34,125 345 411 64
2019-05-18 10:03:54 GMT 39.349072 30.154724 34,125 345 410 0
2019-05-18 10:03:44 GMT 39.332916 30.160522 34,100 345 410 0
2019-05-18 10:03:38 GMT 39.321930 30.164490 34,100 345 409 0
2019-05-18 10:03:34 GMT 39.314762 30.167236 34,100 345 409 0
2019-05-18 10:03:27 GMT 39.300144 30.172363 34,125 345 409 -64
2019-05-18 10:03:24 GMT 39.295025 30.174255 34,125 345 408 0
2019-05-18 10:03:17 GMT 39.283676 30.178370 34,100 345 408 64
2019-05-18 10:03:07 GMT 39.266327 30.184757 34,100 345 408 0
2019-05-18 10:02:58 GMT 39.249168 30.190918 34,100 345 408 0
2019-05-18 10:02:52 GMT 39.235794 30.195744 34,100 345 408 -64
2019-05-18 10:02:44 GMT 39.223434 30.200222 34,125 345 407 -64
2019-05-18 10:02:41 GMT 39.217934 30.202271 34,125 345 407 0
2019-05-18 10:02:33 GMT 39.204201 30.207031 34,125 345 407 0
2019-05-18 10:02:30 GMT 39.198029 30.209297 34,125 345 407 0
2019-05-18 10:02:22 GMT 39.184296 30.214252 34,125 345 405 0
2019-05-18 10:02:19 GMT 39.176880 30.216822 34,125 345 405 0
2019-05-18 10:02:09 GMT 39.159882 30.223022 34,125 345 405 -64
2019-05-18 10:01:57 GMT 39.138981 30.230408 34,125 345 404 64
2019-05-18 10:01:49 GMT 39.122131 30.236584 34,125 345 403 0
2019-05-18 10:01:44 GMT 39.113388 30.239689 34,125 345 404 0
2019-05-18 10:01:39 GMT 39.104782 30.242794 34,125 345 403 0
2019-05-18 10:01:32 GMT 39.094849 30.246555 34,100 345 403 0
2019-05-18 10:01:27 GMT 39.079056 30.252228 34,100 345 402 -64
2019-05-18 10:01:15 GMT 39.064308 30.257507 34,100 345 402 -64
2019-05-18 10:01:05 GMT 39.045734 30.264404 34,125 345 402 0
2019-05-18 10:00:54 GMT 39.025314 30.271751 34,100 345 401 64
2019-05-18 10:00:40 GMT 39.001976 30.280029 34,100 345 401 0
2019-05-18 10:00:30 GMT 38.983109 30.286860 34,100 345 400 0
2019-05-18 10:00:19 GMT 38.964222 30.293579 34,075 345 400 320
2019-05-18 10:00:11 GMT 38.948582 30.299255 34,000 345 400 320
2019-05-18 10:00:00 GMT 38.927490 30.306622 33,975 345 400 256
2019-05-18 09:59:49 GMT 38.909943 30.312805 33,925 345 400 320
2019-05-18 09:59:37 GMT 38.888855 30.320175 33,850 345 401 448
2019-05-18 09:59:27 GMT 38.870468 30.326538 33,750 345 402 448
2019-05-18 09:59:06 GMT 38.832897 30.339600 33,450 345 405 448
2019-05-18 09:59:03 GMT 38.827732 30.341492 33,450 345 407 576
2019-05-18 09:58:52 GMT 38.807144 30.348837 33,500 345 409 640
2019-05-18 09:58:43 GMT 38.789978 30.355042 33,400 345 411 640
2019-05-18 09:58:32 GMT 38.770752 30.361755 33,275 345 414 640
2019-05-18 09:58:20 GMT 38.748276 30.369793 33,150 345 415 704
2019-05-18 09:58:10 GMT 38.730762 30.375977 33,050 345 415 960
2019-05-18 09:58:00 GMT 38.711536 30.382812 32,875 345 416 960
2019-05-18 09:57:48 GMT 38.688171 30.391109 32,700 345 416 896
2019-05-18 09:57:38 GMT 38.670853 30.397278 32,525 345 416 768
2019-05-18 09:57:26 GMT 38.648849 30.405142 32,325 345 415 768
2019-05-18 09:57:13 GMT 38.622253 30.414576 32,200 345 414 896
2019-05-18 09:57:05 GMT 38.609024 30.419231 32,125 345 413 256
2019-05-18 09:56:54 GMT 38.589111 30.426277 32,125 345 411 -64
2019-05-18 09:56:44 GMT 38.570438 30.432800 32,125 345 411 -64
2019-05-18 09:56:32 GMT 38.547913 30.440666 32,125 345 411 64
2019-05-18 09:56:20 GMT 38.511551 30.453552 32,125 345 411 0
2019-05-18 09:56:12 GMT 38.511551 30.453552 32,125 345 410 0
2019-05-18 09:56:09 GMT 38.506027 30.455654 32,100 345 411 64
2019-05-18 09:56:03 GMT 38.496281 30.459045 32,100 345 410 0
2019-05-18 09:55:58 GMT 38.487343 30.462341 32,125 345 410 0
2019-05-18 09:55:52 GMT 38.473938 30.467117 32,125 345 410 0
2019-05-18 09:55:48 GMT 38.467743 30.469360 32,125 345 409 0
2019-05-18 09:55:34 GMT 38.442886 30.478271 32,125 345 409 0
2019-05-18 09:55:21 GMT 38.420059 30.486702 32,125 344 408 64
2019-05-18 09:55:15 GMT 38.407181 30.491360 32,100 344 408 128
2019-05-18 09:55:07 GMT 38.393097 30.496469 32,100 344 408 0
2019-05-18 09:54:45 GMT 38.352947 30.511600 32,100 344 407 0
2019-05-18 09:54:40 GMT 38.343842 30.514994 32,100 344 407 64
2019-05-18 09:53:45 GMT 38.242897 30.551247 32,100 346 404 0
2019-05-18 09:53:35 GMT 38.227627 30.556204 32,125 346 404 -64
2019-05-18 09:53:26 GMT 38.211456 30.561686 32,125 346 404 0
2019-05-18 09:53:17 GMT 38.193645 30.567547 32,125 346 403 -128
2019-05-18 09:53:06 GMT 38.174232 30.574057 32,125 346 401 64
2019-05-18 09:53:00 GMT 38.164444 30.577171 32,125 345 401 64
2019-05-18 09:52:53 GMT 38.152073 30.581997 32,125 342 399 0
2019-05-18 09:52:41 GMT 38.131805 30.592073 32,125 320 389 -128
2019-05-18 09:52:32 GMT 38.117065 30.602066 32,100 330 393 64
2019-05-18 09:52:21 GMT 38.100262 30.617344 32,125 321 390 -64
2019-05-18 09:52:12 GMT 38.085831 30.632450 32,125 320 389 -128
2019-05-18 09:52:00 GMT 38.071583 30.647915 32,125 319 388 -192
2019-05-18 09:51:51 GMT 38.058334 30.663836 32,100 313 386 640
2019-05-18 09:51:39 GMT 38.045979 30.683262 32,000 306 386 576
2019-05-18 09:51:27 GMT 38.033459 30.705414 31,875 306 389 768
2019-05-18 09:51:17 GMT 38.022984 30.723923 31,625 306 391 2048
2019-05-18 09:51:08 GMT 38.013016 30.741615 31,325 306 396 2048
2019-05-18 09:51:02 GMT 38.005665 30.755032 31,075 305 399 1920
2019-05-18 09:50:58 GMT 38.001709 30.762186 30,975 305 400 1728
2019-05-18 09:50:46 GMT 37.990536 30.782797 30,700 305 402 1472
2019-05-18 09:50:43 GMT 37.987289 30.788658 30,625 306 403 1536
2019-05-18 09:50:37 GMT 37.978851 30.802559 30,425 310 404 1408
2019-05-18 09:50:29 GMT 37.970123 30.814722 30,275 314 405 1344
2019-05-18 09:50:25 GMT 37.965820 30.820040 30,225 315 405 1280
2019-05-18 09:50:21 GMT 37.960144 30.827637 30,125 315 405 1344
2019-05-18 09:50:11 GMT 37.946449 30.844593 29,900 318 405 1024
2019-05-18 09:50:00 GMT 37.930481 30.859545 29,725 330 406 896
2019-05-18 09:49:53 GMT 37.917404 30.867762 29,600 340 405 1344
2019-05-18 09:49:44 GMT 37.902832 30.874153 29,575 341 405 1408
2019-05-18 09:49:37 GMT 37.889610 30.879284 29,275 343 406 1408
2019-05-18 09:49:31 GMT 37.879463 30.883224 29,175 344 405 1152
2019-05-18 09:49:28 GMT 37.873306 30.885490 29,100 344 404 1088
2019-05-18 09:49:24 GMT 37.864700 30.888704 29,000 344 404 1344
2019-05-18 09:49:20 GMT 37.859756 30.890633 28,925 344 404 1472
2019-05-18 09:49:14 GMT 37.848598 30.894928 28,800 344 404 1088
2019-05-18 09:49:09 GMT 37.839336 30.898510 28,700 343 402 1344
2019-05-18 09:49:05 GMT 37.829681 30.902262 28,600 343 402 1344
2019-05-18 09:48:57 GMT 37.817505 30.906937 28,475 343 402 960
2019-05-18 09:48:53 GMT 37.811497 30.909319 28,425 343 401 896
2019-05-18 09:48:49 GMT 37.803452 30.912430 28,350 343 400 1024
2019-05-18 09:48:44 GMT 37.792786 30.916521 28,225 344 400 1280
2019-05-18 09:48:39 GMT 37.786591 30.918753 28,150 344 399 1152
2019-05-18 09:48:32 GMT 37.773930 30.923588 28,000 344 398 1152
2019-05-18 09:48:29 GMT 37.768250 30.925617 27,975 344 398 1280
2019-05-18 09:48:21 GMT 37.753490 30.931110 27,775 344 397 1472
2019-05-18 09:48:18 GMT 37.749527 30.932650 27,725 344 397 1408
2019-05-18 09:48:12 GMT 37.736160 30.937675 27,525 344 397 1536
2019-05-18 09:48:07 GMT 37.729469 30.940067 27,425 344 397 1536
2019-05-18 09:48:00 GMT 37.717758 30.944338 27,275 344 397 1600
2019-05-18 09:47:54 GMT 37.707138 30.948311 27,100 344 397 1536
2019-05-18 09:47:51 GMT 37.698715 30.951584 26,975 344 397 1600
2019-05-18 09:47:47 GMT 37.693726 30.953453 26,900 344 396 1664
2019-05-18 09:47:40 GMT 37.681046 30.958244 26,700 344 397 1664
2019-05-18 09:47:34 GMT 37.671608 30.961861 26,550 344 397 1664
2019-05-18 09:47:26 GMT 37.656849 30.967533 26,350 343 396 1472
2019-05-18 09:47:16 GMT 37.638977 30.974550 26,100 343 395 1472
2019-05-18 09:47:05 GMT 37.620117 30.981796 25,825 344 394 1472
2019-05-18 09:46:55 GMT 37.602585 30.988283 25,625 344 393 1088
2019-05-18 09:46:45 GMT 37.584740 30.994999 25,375 344 391 1600
2019-05-18 09:46:33 GMT 37.565327 31.002342 25,100 344 389 1408
2019-05-18 09:46:23 GMT 37.547501 31.009211 24,875 344 387 1280
2019-05-18 09:46:16 GMT 37.533417 31.014580 24,700 344 385 1216
2019-05-18 09:46:12 GMT 37.529297 31.016100 24,650 344 385 1280
2019-05-18 09:46:05 GMT 37.515747 31.021242 24,475 344 383 1280
2019-05-18 09:45:54 GMT 37.497036 31.028316 24,225 344 380 1216
2019-05-18 09:45:51 GMT 37.493778 31.029510 24,175 344 380 1280
2019-05-18 09:45:48 GMT 37.487228 31.031878 24,100 344 379 1600
2019-05-18 09:45:42 GMT 37.477440 31.035301 23,925 345 378 1664
2019-05-18 09:45:31 GMT 37.459236 31.041691 23,575 345 379 1920
2019-05-18 09:45:27 GMT 37.451694 31.044258 23,450 346 379 1856
2019-05-18 09:45:23 GMT 37.443642 31.046825 23,300 346 378 1984
2019-05-18 09:45:16 GMT 37.432983 31.050110 23,100 347 379 1856
2019-05-18 09:45:10 GMT 37.423019 31.053036 22,950 347 378 1984
2019-05-18 09:45:05 GMT 37.415665 31.055244 22,750 348 379 2112
2019-05-18 09:45:02 GMT 37.408119 31.057276 22,600 347 379 1856
2019-05-18 09:44:59 GMT 37.403976 31.058647 22,525 347 379 1856
2019-05-18 09:44:54 GMT 37.396088 31.061096 22,400 346 378 1856
2019-05-18 09:44:51 GMT 37.390091 31.063143 22,275 345 377 1920
2019-05-18 09:44:48 GMT 37.386658 31.064310 22,225 345 377 1984
2019-05-18 09:44:40 GMT 37.367935 31.071556 21,875 343 376 1792
2019-05-18 09:44:27 GMT 37.351791 31.078232 21,600 342 373 1600
2019-05-18 09:44:17 GMT 37.334988 31.085278 21,350 342 370 1408
2019-05-18 09:44:07 GMT 37.318497 31.092302 21,100 342 365 1344
2019-05-18 09:43:56 GMT 37.301331 31.099373 20,875 343 360 1344
2019-05-18 09:43:45 GMT 37.283798 31.105217 20,675 347 358 1472
2019-05-18 09:43:35 GMT 37.266815 31.107788 20,350 358 358 1984
2019-05-18 09:43:24 GMT 37.249332 31.108444 19,950 359 357 2432
2019-05-18 09:43:13 GMT 37.231270 31.108088 19,550 5 360 2048
2019-05-18 09:43:03 GMT 37.214630 31.103464 19,200 18 365 1984
2019-05-18 09:42:53 GMT 37.198517 31.094522 18,850 27 366 2048
2019-05-18 09:42:42 GMT 37.182358 31.083712 18,525 28 365 1984
2019-05-18 09:42:31 GMT 37.166561 31.073277 18,125 27 361 2048
2019-05-18 09:42:21 GMT 37.151459 31.063492 17,750 27 359 2240
2019-05-18 09:42:11 GMT 37.136719 31.054026 17,375 26 356 2176
2019-05-18 09:42:00 GMT 37.120743 31.044090 16,975 26 355 2240
2019-05-18 09:41:50 GMT 37.106140 31.035151 16,600 25 352 2304
2019-05-18 09:41:40 GMT 37.090164 31.025566 16,175 25 350 2368
2019-05-18 09:41:29 GMT 37.074715 31.016254 15,750 25 347 2432
2019-05-18 09:41:19 GMT 37.059952 31.007509 15,325 25 345 2432
2019-05-18 09:41:08 GMT 37.044689 30.998402 14,900 25 343 2368
2019-05-18 09:40:58 GMT 37.029930 30.989326 14,475 26 341 2496
2019-05-18 09:40:47 GMT 37.014816 30.980219 14,050 25 338 2240
2019-05-18 09:40:36 GMT 36.999207 30.970810 13,650 25 333 2240
2019-05-18 09:40:25 GMT 36.984447 30.962219 13,250 24 327 2944
2019-05-18 09:40:15 GMT 36.969864 30.953804 12,650 24 327 3648
2019-05-18 09:40:04 GMT 36.955261 30.945915 11,900 19 334 3840
2019-05-18 09:39:54 GMT 36.938278 30.941767 11,400 1 334 2176
2019-05-18 09:39:42 GMT 36.920765 30.942993 11,075 355 327 1024
2019-05-18 09:39:33 GMT 36.906010 30.944546 10,900 356 313 832
2019-05-18 09:39:21 GMT 36.891205 30.946037 10,725 356 299 1088
2019-05-18 09:39:11 GMT 36.876984 30.947260 10,525 357 286 1088
2019-05-18 09:39:01 GMT 36.863087 30.948307 10,200 357 277 2432
2019-05-18 09:38:49 GMT 36.849152 30.949516 9,725 356 272 2624
2019-05-18 09:38:39 GMT 36.835949 30.951408 9,250 351 270 2752
2019-05-18 09:38:29 GMT 36.823238 30.954798 8,750 349 268 3008
2019-05-18 09:38:20 GMT 36.813126 30.956039 8,325 359 267 3136
2019-05-18 09:38:17 GMT 36.809879 30.956024 8,175 1 267 3200
2019-05-18 09:38:08 GMT 36.797310 30.952929 7,575 20 268 3328
2019-05-18 09:37:57 GMT 36.786346 30.944881 7,025 41 272 2944
2019-05-18 09:37:47 GMT 36.777924 30.931664 6,575 64 271 1792
2019-05-18 09:37:38 GMT 36.774994 30.919819 6,275 80 268 2496
2019-05-18 09:37:35 GMT 36.774685 30.915878 6,175 87 267 2432
2019-05-18 09:37:28 GMT 36.775337 30.904190 5,800 102 265 2816
2019-05-18 09:37:25 GMT 36.776550 30.899220 5,650 107 265 2944
2019-05-18 09:37:15 GMT 36.781357 30.883942 5,075 113 263 2560
2019-05-18 09:37:07 GMT 36.784973 30.874329 4,850 114 257 1856
2019-05-18 09:37:04 GMT 36.786850 30.869350 4,725 114 253 1984
2019-05-18 09:36:56 GMT 36.789955 30.860771 4,525 114 245 1472
2019-05-18 09:36:53 GMT 36.791656 30.856304 4,450 114 239 1728
2019-05-18 09:36:43 GMT 36.796463 30.843086 4,175 115 226 960
2019-05-18 09:36:35 GMT 36.799393 30.835361 4,050 116 216 1152
2019-05-18 09:36:32 GMT 36.801128 30.831026 3,975 116 210 1280
2019-05-18 09:36:24 GMT 36.804199 30.823689 3,850 117 201 896
2019-05-18 09:36:21 GMT 36.805756 30.820084 3,775 121 195 1152
2019-05-18 09:36:14 GMT 36.809505 30.814079 3,625 134 188 1408
2019-05-18 09:36:11 GMT 36.811935 30.811329 3,525 142 184 1728
2019-05-18 09:36:03 GMT 36.817062 30.807896 3,275 158 184 2496
2019-05-18 09:36:00 GMT 36.820168 30.806658 3,100 165 185 2624
2019-05-18 09:35:53 GMT 36.825668 30.804977 2,825 167 185 2560
2019-05-18 09:35:49 GMT 36.828918 30.804119 2,625 166 186 2944
2019-05-18 09:35:42 GMT 36.834412 30.802391 2,325 164 188 2240
2019-05-18 09:35:38 GMT 36.838348 30.800858 2,150 161 185 2496
2019-05-18 09:35:32 GMT 36.842976 30.798767 1,925 161 184 1664
2019-05-18 09:35:28 GMT 36.846771 30.797253 1,800 162 180 1920
2019-05-18 09:35:20 GMT 36.852264 30.795671 1,525 171 180 2112
2019-05-18 09:35:17 GMT 36.855358 30.795513 1,425 182 175 2048
2019-05-18 09:35:11 GMT 36.860153 30.795872 1,200 188 174 2752
2019-05-18 09:35:00 GMT 36.868561 30.797424 700 190 174 3328

Making use of Plane Finder data

You are free to use the raw flight data, aircraft information and images provided in this report for your own purposes provided the data is correctly attributed to Plane Finder. We ask that you please credit Plane Finder and link to planefinder.net in close proximity to the content.

Optionally one of the following logos (no smaller then 150x24px) can be used and must link to planefinder.net

Embedding the Plane Finder map

You are welcome to embed the Plane Finder playback map on your website to offer visitors a more interactive experience. We suggest using the following HTML code:

<iframe src="//planefinder.net/data/report/BKV2170-UR-CQX-7700-squawk-2019-05-18/map" width="800" height="600" seamless="seamless"></iframe>

Where our data comes from

Plane Finder has a global network of data feeds and antenna radars that receive data broadcast directly from aircraft. The primary technologies used are ADS-B and MLAT. We also show feeds from the FAA and a FLARM glider feed.

Click here to find out more about the Plane Finder network.

How we collect our data